> The Twenty-Ninth Presentation > Registration & Results > Results > 1999 Marathon > Men1999 Big Sur Marathon

Men1999 Big Sur Marathon

Big Sur Marathon - MEN - Marathon
04/25/99 - Big Sur to Carmel, CA
Timing & Results: Total Race Systems - 415/472-7223

    Place. Name, Town                         Age      Time    Div./Plc
1. Arsenio Ortiz, Ozone Park, NY 25 2:19:16 25-29/1
2. Reuben Chesang, San Francisco, CA 36 2:21:16 35-39/1
3. Srba Nikolic, Brooklyn, NY 32 2:21:37 30-34/1
4. Michael Harrison, Va Beach, VA 32 2:31:39 30-34/2
5. Vitas Ezerskis, San Francisco, CA 38 2:32:27 35-39/2
6. David Beauley, Nashua, NH 33 2:38:58 30-34/3
7. Sammy Rotish, Albuquerque, NM 41 2:40:36 40-44/1
8. Larry Hyde, Palo Alto, CA 44 2:43:13 40-44/2
9. Rich Oldrieve, Westlake, OH 40 2:43:48 40-44/3
10. Raymond Ross, Irvine, CA 38 2:44:30 35-39/3
11. Bill Suffrins, Winona, MN 35 2:45:35 35-39/4
12. Peter Hanks, San Francisco, CA 25 2:45:56 25-29/2
13. Joseph Guenther, Eau Claire, WI 29 2:46:55 25-29/3
14. Mark Shorter, North Vancouver, BC 42 2:47:05 40-44/4
15. William Hague, Winnetka, IL 34 2:50:07 30-34/4
16. David Louks, Newbury Park, CA 45 2:52:39 45-49/1
17. James Mahar, Issaquah, WA 44 2:53:05 40-44/5
18. Mike Miller, Sonora, CA 42 2:53:18 40-44/6
19. John Hahn, Kirkland, WA 51 2:55:07 50-54/1
20. David Eckley, Telluride, CO 41 2:56:28 40-44/7
21. Brian Johnston, Minneapolis, MN 27 2:56:58 25-29/4
22. Jay Srivatsa, Los Gatos, CA 31 2:57:01 30-34/5
23. Aengus Wagner, Big Sur, CA 35 2:57:25 35-39/5
24. Steve Kirkland, Ogden, UT 35 2:57:47 35-39/6
25. Patrick Mally, , 42 2:58:01 40-44/8
26. Jose Castaneda, South San Francisco 44 2:58:07 40-44/9
27. Byrle Smallen, Agoura Hills, CA 51 2:58:13 50-54/2
28. Josh Johnson, Mountain View, CA 23 2:58:24 20-24/1
29. Geoffrey Scott, Poole Dorset, 53 2:58:30 50-54/3
30. Phil Kelly, Woodland Hills, CA 26 2:58:52 25-29/5
31. Gary Wall, Los Alamos, NM 51 2:59:05 50-54/4
32. Wolfgang Schuetz, Sunnyvale, CA 43 2:59:47 40-44/10
33. Paul Sullivan, Green Mtn. Falls, CO 32 3:00:21 30-34/6
34. Vincent Bourret, St. Helena, CA 34 3:00:39 30-34/7
35. Jim Poulos, Carmel, CA 45 3:00:46 45-49/2
36. Daniel Geiszler, Pacific Grove, CA 24 3:00:52 20-24/2
37. Brian Koch, Camarillo, CA 28 3:01:27 25-29/6
38. Jim Shimberg, Campton, NH 41 3:01:34 40-44/11
39. John Catts, San Rafael, CA 45 3:01:51 45-49/3
40. Steve Radigan, Fremont, CA 47 3:02:10 45-49/4
41. Rob Erlich, Orange, CA 38 3:02:48 35-39/7
42. Yi Mao, Seaside, CA 38 3:02:55 35-39/8
43. Brian Lucido, Mountain View, CA 22 3:03:09 20-24/3
44. Matt Craven, Stanford, CA 20 3:03:38 20-24/4
45. John Hummel, Bend, OR 29 3:03:44 25-29/7
46. Klaus Loeffler, Northville, MI 34 3:03:52 30-34/8
47. Lenny Deshayes, Cushing, MN 44 3:04:20 40-44/12
48. John Jacobsen, Mill Creek, WA 40 3:04:59 40-44/13
49. John Mercer, Edmonton, AL 50 3:05:31 50-54/5
50. Matthew Johnson, Alexandria, VA 18 3:05:36 16-19/1
51. Tom Augustitus, Carmel Valley, CA 46 3:05:45 45-49/5
52. Ian Shearer, Santa Cruz, CA 30 3:06:02 30-34/9
53. Eric Small, Socorro, NM 27 3:06:02 25-29/8
54. Darius Brooks, Atherton, CA 29 3:06:21 25-29/9
55. Samuel McMillan, Menlo Park, CA 28 3:06:22 25-29/10
56. James Russell, Santa Cruz, CA 30 3:06:23 30-34/10
57. Tom Bell, Medfort, OR 30 3:06:35 30-34/11
58. Greg Desautel, Sioux Falls, SD 33 3:06:37 30-34/12
59. John Oakes, Los Angles, CA 29 3:06:42 25-29/11
60. Alan Chapiro, Mexico City, MX 33 3:06:44 30-34/13
61. Dan Cook, Los Angeles, CA 25 3:06:59 25-29/12
62. Clive Forrest, Fort Worth, TX 47 3:07:25 45-49/6
63. Derek Sheffield, Taylorsville, UT 33 3:07:34 30-34/14
64. Stefan Peterson, Novato, CA 30 3:08:07 30-34/15
65. Joseph Dulin, Topsham, ME 30 3:08:15 30-34/16
66. Rosalio Campos, Salinas, CA 39 3:08:22 35-39/9
67. Tony Shelley, Columbia, PA 41 3:08:25 40-44/14
68. Thomas Gottschalk, Sunnyvale, CA 32 3:08:51 30-34/17
69. Rudy Novotny, San Diego, CA 45 3:08:52 45-49/7
70. Edward Cortright, Rocklin, CA 39 3:09:14 35-39/10
71. Peter Elliman, San Francisco, CA 30 3:09:21 30-34/18
72. Bart Yasso, Emmaus, PA 43 3:10:12 40-44/15
73. Scott Piper, Bellingham, WA 53 3:10:14 50-54/6
74. Mike Donoghue, Bothell, WA 57 3:10:25 55-59/1
75. Terry Parks, Tacoma, WA 48 3:11:13 45-49/8
76. Bruce Whale, Big Sur, CA 37 3:11:32 35-39/11
77. Brent Pinder, Tempe, AZ 59 3:11:35 55-59/2
78. Ryan Burchfield, Danville, CA 23 3:11:48 20-24/5
79. Peter Reidenbach, San Francisco, CA 24 3:11:51 20-24/6
80. Robert Evans, San Jose, CA 32 3:12:21 30-34/19
81. William Davis, Golden, CO 41 3:12:31 40-44/16
82. Michael Stock, Flagstaff, AZ 43 3:12:47 40-44/17
83. Dave Kaleugher, Evergreen, CO 32 3:12:51 30-34/20
84. Elam Riehl, Lancaster, PA 42 3:13:02 40-44/18
85. Alejandro Rodriguez, San Francisco 28 3:13:10 25-29/13
86. James Michael, Keller, TX 36 3:13:22 35-39/12
87. Mauricio Moncada, Cali, 39 3:13:42 35-39/13
88. Luke Swartz, Stanford, CA 19 3:13:46 16-19/2
89. Peter Hague, Monterey, CA 36 3:13:56 35-39/14
90. Paul Carr, Gilbert, AZ 42 3:13:58 40-44/19
91. Dave Morton, Ottawa, ON 41 3:14:01 40-44/20
92. Jason Eckert, Sandy, UT 26 3:14:15 25-29/14
93. Rolfe McCoy, Chillicothe, MO 39 3:14:37 35-39/15
94. Yoshihiro Ishijima, San Jose, CA 36 3:14:40 35-39/16
95. Roy Seliber, Redmond, WA 39 3:14:52 35-39/17
96. Donald Buraglio, Carmel Valley, CA 28 3:14:57 25-29/15
97. Don Witulski, Coeur D'alene, ID 46 3:14:58 45-49/9
98. Dan McCluskey, San Clemente, CA 41 3:15:30 40-44/21
99. Bill Sanders, Springville, CA 29 3:16:28 25-29/16
100. J.P. Sulpizio, San Francisco, CA 34 3:16:37 30-34/21
101. Scott Davids, Pacific Grove, CA 31 3:16:45 30-34/22
102. Andrew Altman, Orange, CA 44 3:16:57 40-44/22
103. Stefan Carlsson, Stanford, CA 23 3:17:01 20-24/7
104. Erik Ellis, St. Louis, MO 30 3:17:02 30-34/23
105. Mario Pauda, , 50 3:17:20 50-54/7
106. Timothy Larson, Rochester, MN 43 3:17:22 40-44/23
107. Dj Jernigan, Rancho Cordova, CA 22 3:17:30 20-24/8
108. Armando Esparza, Salinas, CA 42 3:17:47 40-44/24
109. Brian White, Evanston, IL 20 3:17:48 20-24/9
110. Gerhard Fussle, Winona Lake, IN 44 3:17:52 40-44/25
111. Scott Henkin, Los Altos, CA 27 3:18:04 25-29/17
112. Curtis Ponton, Yorba Linda, CA 39 3:18:07 35-39/18
113. David Graham, Delta, CN 61 3:18:18 60-64/1
114. Christian Nowak, Ma. Enzersdorf, A 39 3:18:22 35-39/19
115. James Stevenson, Glasgow, SC 37 3:18:27 35-39/20
116. Daniel Levin, Edwards, CA 41 3:18:51 40-44/26
117. Daniel Cooper, New York, NY 35 3:19:06 35-39/21
118. Steve Lind, Grand Detour, IL 44 3:19:21 40-44/27
119. Michael Suchomel, Berkeley, CA 39 3:19:25 35-39/22
120. Mike McNulty, Boulder Creek, CA 38 3:19:33 35-39/23
121. David Turner, Roswell, NM 33 3:19:35 30-34/24
122. Russ Fiebig, Madison, IL 28 3:19:45 25-29/18
123. Ed Strickland, Castle Rock, CO 43 3:19:47 40-44/28
124. David Jackson, Seaside, CA 46 3:19:58 45-49/10
125. Manual Ramirez, , 37 3:20:00 35-39/24
126. Allan Polley, Pebble Beach, CA 41 3:20:04 40-44/29
127. Andy Hergert, Seaside, CA 45 3:20:08 45-49/11
128. Barton Palmer, Petaluma, CA 44 3:20:41 40-44/30
129. D.W. Rogers, San Francisco, CA 38 3:20:52 35-39/25
130. Colby Haase, Kent, WA 26 3:20:55 25-29/19
131. Ricardo Rodrigues, Sao Paulo, SP 38 3:20:59 35-39/26
132. Gordon Foster, Scottsdale, AZ 60 3:21:03 60-64/2
133. Paul Mathias, S. Surrey, BC 40 3:21:31 40-44/31
134. Andrew Creely, Carmel, CA 41 3:21:38 40-44/32
135. Harry Ten Klooster, , 33 3:21:47 30-34/25
136. Curtis Runyan, Washington, DC 27 3:22:09 25-29/20
137. William Harper, Norton, VA 29 3:22:16 25-29/21
138. Don Wahl, Seattle, WA 36 3:22:22 35-39/27
139. Vincent Suarez, San Francisco, CA 35 3:22:27 35-39/28
140. Slaeko Jevtic, Ljubljana, SL 30 3:22:32 30-34/26
141. Andre Bonfrer, Carlton, VI 31 3:22:40 30-34/27
142. Jim Tait, Santa Clara, CA 50 3:22:49 50-54/8
143. Daryl Knuth, Alexandria, VA 43 3:22:54 40-44/33
144. Robert Connolly, Sf, CA 28 3:22:59 25-29/22
145. Tom Glenn, Irvine, CA 54 3:23:11 50-54/9
146. Douglas Titus, Monterey, CA 27 3:23:21 25-29/23
147. David Brennan, Nevada City, CA 47 3:23:26 45-49/12
148. Mark Miller, Bakersfield, CA 45 3:23:40 45-49/13
149. Stephen Sponseller, Somerville, MA 26 3:23:43 25-29/24
150. Torsten Rittweger, Hamburg, 34 3:23:49 30-34/28
151. Walter Ross, Ft. Worth, TX 35 3:23:53 35-39/29
152. Allen Garneau, Lusby, MD 28 3:24:02 25-29/25
153. Brian Hopp, Mission Viejo, CA 41 3:24:06 40-44/34
154. Andrew Kylander-Clark, Carmel, CA 24 3:24:13 20-24/10
155. Barry Alexia, Grundy Center, IA 43 3:24:21 40-44/35
156. John Chernowski, Oakland, CA 29 3:24:41 25-29/26
157. Scot Safford, Salt Lake City, UT 40 3:24:49 40-44/36
158. Daniel Martin, Boulder Creek, CA 51 3:24:51 50-54/10
159. Michael Dvorak, Half Moon Bay, CA 19 3:24:53 16-19/3
160. Garrett Headley, Santa Barbara, CA 32 3:24:54 30-34/29
161. Masashi Katayama, San Francisco, CA 28 3:24:54 25-29/27
162. Jeffrey Hanson, St. Louis Park, MN 36 3:24:59 35-39/30
163. Gary Bernard, Huntington Beach, CA 30 3:25:20 30-34/30
164. Robert Patterson, Soquel, CA 45 3:25:30 45-49/14
165. Peter Jack, Delta, BC 44 3:25:45 40-44/37
166. Jorge De Ibarrola Davalos, Mexico D 34 3:25:48 30-34/31
167. Thomas Rafa, Blackfalos, AB 47 3:25:51 45-49/15
168. Rick Ferrell, Aptos, CA 40 3:25:56 40-44/38
169. Peter Schwartz, Colorado Springs, C 35 3:26:09 35-39/31
170. James Woodward, Merrimack, NH 39 3:26:16 35-39/32
171. Richard Brainard, Breckenridge, CO 53 3:26:21 50-54/11
172. Mitchell Page, Santa Cruz, CA 49 3:26:26 45-49/16
173. Paul Peterson, Livermore, CA 45 3:26:28 45-49/17
174. Doug Neil, Studio City, CA 34 3:26:41 30-34/32
175. Dj Skelton, Monterey, CA 21 3:26:42 20-24/11
176. Geoffrey O'brien, Venice, CA 30 3:26:47 30-34/33
177. Peter Jensen, Tsawwassen, BC 55 3:26:49 55-59/3
178. Geoffrey Rinehart, , 24 3:26:54 20-24/12
179. David Cook, Austin, TX 36 3:27:06 35-39/33
180. Scott Waldelich, Seaside, CA 34 3:27:09 30-34/34
181. Ron Christen, Crawfordville, FL 53 3:27:14 50-54/12
182. Sean McGinley, Baltimore, MD 35 3:27:18 35-39/34
183. T.J. Miller, Watsonville, CA 25 3:27:18 25-29/28
184. Len Sowinski, Olyphant, PA 54 3:27:19 50-54/13
185. Carter Busse, San Francisco, CA 30 3:27:39 30-34/35
186. Dennis Hartley, Santa Cruz, CA 60 3:27:45 60-64/3
187. Greg Skochko, West Chester, PA 24 3:27:46 20-24/13
188. Gregg Gaver, Santa Cruz, CA 33 3:27:46 30-34/36
189. Andrew Ware, Marina, CA 20 3:27:58 20-24/14
190. Michael Johnson, Alma, AR 27 3:28:03 25-29/29
191. Kevin McCarty, Seattle, WA 42 3:28:07 40-44/39
192. Patrick Tighe, Santa Barbara, CA 33 3:28:08 30-34/37
193. Robert Regan, Monterey, CA 25 3:28:26 25-29/30
194. Vince Hunt, Pacific Grove, CA 41 3:28:33 40-44/40
195. Michael Sweeney, San Rafael, CA 44 3:28:34 40-44/41
196. Yoshikatsu Inoue, Mishima, SH 59 3:28:44 55-59/4
197. Dennis Halpin, Houston, TX 46 3:28:54 45-49/18
198. Dirk Chelius, San Francisco, CA 29 3:28:57 25-29/31
199. Tom Tryner, Omaha, NE 36 3:28:57 35-39/35
200. Joseph Frankhouse, Portland, OR 36 3:28:58 35-39/36
201. Richard Blaylock, San Fransisco, CA 37 3:29:03 35-39/37
202. Scott Gore, Lake Hopatcong, NJ 35 3:29:06 35-39/38
203. Chris Klemczyk, Renton, WA 31 3:29:07 30-34/38
204. Bill Gates, Pacific Grove, CA 45 3:29:14 45-49/19
205. Thomas Rolander, Pacific Grove, CA 51 3:29:15 50-54/14
206. Marco Marienberg, Redwood City, CA 22 3:29:35 20-24/15
207. Kevin Odonnell, San Francisco, CA 34 3:29:35 30-34/39
208. Brad Dyke, Ann Arbor, MI 30 3:29:36 30-34/40
209. Martin Leduc, N. Vancouver, BC 34 3:29:42 30-34/41
210. Jeffrey Bristow, Laguna Niguel, CA 50 3:29:50 50-54/15
211. Tom Long, Pebble Beach, CA 50 3:30:00 50-54/16
212. Darren Marsh, Menlo Park, CA 40 3:30:03 40-44/42
213. David Styles, Victoria, AU 49 3:30:06 45-49/20
214. Jamie Stiff, Toronto, ON 25 3:30:06 25-29/32
215. Charles Walker, Toronto, ON 26 3:30:06 25-29/33
216. Michael Shoemaker, Kashechewan, ON 26 3:30:07 25-29/34
217. Matthew McKenzie, Toronto, ON 24 3:30:07 20-24/16
218. Dan McGill, Sparks, NV 44 3:30:08 40-44/43
219. Bob Horrisberger, St. Paul, MN 48 3:30:31 45-49/21
220. Mark Steinhauser, Little Canada, MN 48 3:30:31 45-49/22
221. Richmond Hall, Bethany Beach, DE 36 3:30:34 35-39/39
222. Daniel Fernandez, Marina, CA 32 3:30:35 30-34/42
223. David Brooks, Brooklyn, NY 32 3:30:35 30-34/43
224. Norm Carlson, Denver, CO 41 3:30:37 40-44/44
225. Harold Klein, Billings, MT 43 3:30:37 40-44/45
226. Zbynek Jonak, Carmel, CA 50 3:30:53 50-54/17
227. Curt Riffle, Los Altos, CA 43 3:30:59 40-44/46
228. Matt Anderson, San Ramone, CA 39 3:31:00 35-39/40
229. Martin Robles, Monterey, CA 40 3:31:02 40-44/47
230. Anthony Barber, Roswell, GA 47 3:31:05 45-49/23
231. Michael Kreuzer, San Francisco, CA 24 3:31:12 20-24/17
232. Mark Finegan, Burbank, CA 27 3:31:13 25-29/35
233. Russell Kurvach, Victor, NY 39 3:31:15 35-39/41
234. Doug Diekma, Kenmore, WA 40 3:31:22 40-44/48
235. Jeff Urbanski, Vacaville, CA 36 3:31:24 35-39/42
236. Mark Freirich, Steamboat Springs, C 45 3:31:40 45-49/24
237. Tom Slining, Seattle, WA 53 3:31:51 50-54/18
238. Christopher Bennett, Minneapolis, M 34 3:31:53 30-34/44
239. Nicholas Lelack, Eugene, OR 31 3:31:54 30-34/45
240. Gene Bath, Carmel, CA 55 3:31:57 55-59/5
241. Jake Everett, Houston, TX 31 3:32:06 30-34/46
242. Dale Hadley, Sunnyvale, CA 38 3:32:08 35-39/43
243. David Wolf, Santa Monica, CA 29 3:32:08 25-29/36
244. Sean Gallagher, Santa Cruz, CA 49 3:32:20 45-49/25
245. Joe Braley, Marietta, GA 24 3:32:35 20-24/18
246. Tim Hunnicutt, Seattle, WA 47 3:32:53 45-49/26
247. Eric Brown, Berkeley, CA 21 3:32:54 20-24/19
248. Chase Lambrecht, Kansas City, MO 30 3:32:59 30-34/47
249. Denny Rehm, Winona, MN 49 3:33:19 45-49/27
250. George Henry, N Massapequa, NY 38 3:33:22 35-39/44
251. Vance Roget, Modesto, CA 44 3:33:28 40-44/49
252. Andrew Lacko, Prior Lake, MN 29 3:33:30 25-29/37
253. John Meaney, Los Altos, CA 37 3:33:32 35-39/45
254. Hugh Hanson, Minnetonka, MN 49 3:33:36 45-49/28
255. Richard Faloon, Centerport, NY 47 3:33:40 45-49/29
256. Tom Oconnell, Los Gatos, CA 48 3:33:48 45-49/30
257. Bill Trapp, Olive, CA 52 3:33:49 50-54/19
258. Bernd Leinauer, East Lansing, MI 39 3:33:59 35-39/46
259. Cory Reding, Marina, CA 24 3:34:07 20-24/20
260. Jeff Sauter, Dana Point, CA 42 3:34:09 40-44/50
261. Dale Horricks, Stanford, CA 29 3:34:10 25-29/38
262. Opus Wilson, Oakland, CA 30 3:34:13 30-34/48
263. Jozef Froniewski, Palo Alto, CA 42 3:34:22 40-44/51
264. Ted Levine, San Bruno, CA 50 3:34:23 50-54/20
265. Stephen Murray, Birmingham, AL 39 3:34:30 35-39/47
266. Roger Johnson, Agoura Hills, CA 45 3:34:41 45-49/31
267. Shan Han, Boise, ID 23 3:34:44 20-24/21
268. James F. Smith, Ventura, CA 41 3:34:47 40-44/52
269. Anthony Lucas, Marina, CA 36 3:34:49 35-39/48
270. Christoph Becker, Hoboken, NJ 33 3:34:58 30-34/49
271. Arnold Whitman, Alpharetta, GA 47 3:35:10 45-49/32
272. John Winfield, Delta, BC 53 3:35:11 50-54/21
273. Steven Strauss, Portland, OR 43 3:35:15 40-44/53
274. David Soto, San Francisco, CA 29 3:35:25 25-29/39
275. Ronald Tuzon, Santa Clara, CA 28 3:35:25 25-29/40
276. Gaby Timsit, Irvine, CA 40 3:35:27 40-44/54
277. Charlie Hunter, San Jose, CA 50 3:35:30 50-54/22
278. Eugene Fritzel, Lutherville, MD 48 3:35:33 45-49/33
279. Peter Helyer, Bournemouth Dorset, 52 3:35:39 50-54/23
280. Andy Gibson, Smyrna, GA 30 3:35:40 30-34/50
281. Gordon Graham, San Jose, CA 47 3:35:45 45-49/34
282. Chris Cole, Temecula, CA 36 3:35:49 35-39/49
283. Shin Hamanaka, Foster City, CA 28 3:35:52 25-29/41
284. Lance Kyle, Seattle, WA 26 3:35:53 25-29/42
285. Paul Gelinas, Ypsilanti, MI 43 3:35:53 40-44/55
286. R. Garr Schwartz, New York, NY 28 3:35:59 25-29/43
287. Kurt Kinderwater, Garden City, KS 41 3:36:00 40-44/56
288. Stephen Hamilton, Orem, UT 42 3:36:01 40-44/57
289. Christopher Butler, San Francisco, 31 3:36:09 30-34/51
290. Dan Murdock, Red Deer, AL 42 3:36:10 40-44/58
291. Mark Groner, Lake Oswego, OR 28 3:36:11 25-29/44
292. G. Douglas Ross, Boston, MA 29 3:36:12 25-29/45
293. Keith Williams, Summit, NJ 30 3:36:12 30-34/52
294. Edward Beason, New York, NY 30 3:36:12 30-34/53
295. Dave Saunders, Seal Beach, CA 54 3:36:14 50-54/24
296. Jeffrey Rhodes, Chula Vista, CA 46 3:36:18 45-49/35
297. Douglas Fulton, Minneapolis, MN 34 3:36:21 30-34/54
298. Wells Jason, San Francisco, CA 26 3:36:22 25-29/46
299. Mike Gimbel, Lutherville, MD 47 3:36:26 45-49/36
300. Scott Adamec, Concord, CA 34 3:36:31 30-34/55
301. Jason Zoeteman, Fairfield, CA 28 3:36:38 25-29/47
302. David Rahmlow, Beaverton, OR 42 3:36:42 40-44/59
303. Alexis Figeac, Berlin, BE 34 3:36:45 30-34/56
304. Martin Quandt, Beaverton, OR 37 3:36:47 35-39/50
305. Grant Hodges, Sugar Land, TX 42 3:36:52 40-44/60
306. Chris Lages, Mountain View, CA 32 3:36:52 30-34/57
307. Gregory Judge, Seattle, WA 50 3:36:54 50-54/25
308. Ross Moody, Austin, TX 36 3:36:59 35-39/51
309. Ernie Parr, Princeton, IL 45 3:37:01 45-49/37
310. Robert Ellis, New York, NY 30 3:37:16 30-34/58
311. James Harrison, Fenton, MI 40 3:37:28 40-44/61
312. Rick McCarthy, Monterey, CA 32 3:37:30 30-34/59
313. Luke Ingram, Carmel Valley, CA 22 3:37:32 20-24/22
314. Charles Carroll, Monterey, CA 39 3:37:33 35-39/52
315. Kurt Dillmeier, Garden City, NY 28 3:37:36 25-29/48
316. Jon Giese, Pacific Grove, CA 34 3:37:38 30-34/60
317. Rocky Holly, Aurora, CO 45 3:37:42 45-49/38
318. Les Soule, Seattle, WA 52 3:37:44 50-54/26
319. Trevor Stokes, Vancouver, BC 29 3:37:46 25-29/49
320. John Nelson, Logan, UT 56 3:37:48 55-59/6
321. Kirk McCarville, Phoenix, AZ 45 3:37:51 45-49/39
322. Mark Dawson, Orlando, FL 36 3:37:51 35-39/53
323. Albet Munoz, Hermosa Beach, CA 33 3:37:53 30-34/61
324. Mark Friedman, Aptos, CA 52 3:38:03 50-54/27
325. Bob Bebermeyer, Monterey, CA 58 3:38:07 55-59/7
326. Richard Sanders, Menlo Park, CA 27 3:38:08 25-29/50
327. Gregory Widmyer, Menlo Park, CA 31 3:38:09 30-34/62
328. Steve Walls, Anchorage, AK 51 3:38:09 50-54/28
329. Bill Nictakis, Chino Hills, CA 39 3:38:10 35-39/54
330. Christopher Hildago, Monterey, CA 19 3:38:11 16-19/4
331. Mike Nuttall, Portola Valley, CA 49 3:38:11 45-49/40
332. Brett Jones, Auburn, AL 29 3:38:13 25-29/51
333. Edward Fonda, Upland, CA 46 3:38:16 45-49/41
334. Seth Dunn, Washington, DC 28 3:38:17 25-29/52
335. John Ramsey, Sandy, UT 52 3:38:22 50-54/29
336. Kelvin Hildebrand, Watsonville, CA 37 3:38:24 35-39/55
337. Andres Giron, Thousand Oaks, CA 41 3:38:27 40-44/62
338. Philip Hadley, Boulder, CO 27 3:38:27 25-29/53
339. Lawrence Glotzbier, Yonkers, NY 41 3:38:32 40-44/63
340. Mark Rothstein, Hannibal, MO 35 3:38:34 35-39/56
341. Robert Bussen, Park City, UT 52 3:38:46 50-54/30
342. Marco Pavesi, Fremont, CA 51 3:38:49 50-54/31
343. Kyle Gardner, Fort Collins, CO 36 3:39:03 35-39/57
344. Scott Lett, Monroe, NC 38 3:39:08 35-39/58
345. Allan Watts, Tsawassen, BC 55 3:39:15 55-59/8
346. Dan Collipp, San Francisco, CA 41 3:39:16 40-44/64
347. Murray Burns, Los Angeles, CA 58 3:39:17 55-59/9
348. Allan Harman, West Vancouver, BC 37 3:39:19 35-39/59
349. Jeffrey Pecota, Shingle Springs, CA 48 3:39:21 45-49/42
350. Timothy Morgan, Libertyville, IL 34 3:39:24 30-34/63
351. Tony Schmidt, Pacific Grove, CA 44 3:39:28 40-44/65
352. Matthew Troy, Arlington, VA 31 3:39:30 30-34/64
353. Christopher Wolfe, Aptos, CA 39 3:39:31 35-39/60
354. Roberto Malmgringo, St. Paul, MN 44 3:39:35 40-44/66
355. Mark Lyon, San Jose, CA 44 3:39:38 40-44/67
356. G. Bryan Cornwall, Hermosa Beach, 34 3:39:40 30-34/65
357. Kevin Kraus, San Francisco, CA 29 3:39:41 25-29/54
358. Nick Nystrom, Pismo Beach, CA 21 3:39:46 20-24/23
359. Jack Yeager, Los Angeles, CA 34 3:39:50 30-34/66
360. Christopher Esser, Scottsdale, AZ 27 3:39:52 25-29/55
361. Theodore Witt, Seaside, CA 34 3:39:54 30-34/67
362. David Harrell, Chevy Chase, MD 56 3:39:58 55-59/10
363. Rick Gastelum, Austin, TX 54 3:40:01 50-54/32
364. Anil Tiwari, Palo Alto, CA 39 3:40:04 35-39/61
365. Jd Smith, Carmel, CA 43 3:40:07 40-44/68
366. Timothy Holsten, San Francisco, CA 27 3:40:09 25-29/56
367. Richard Jackson, Reno, NV 31 3:40:15 30-34/68
368. Joseph H. Wilson, San Diego, CA 64 3:40:19 60-64/4
369. Peter Poppe, Monterey, CA 34 3:40:20 30-34/69
370. Michael Girouard, Sunnyvale, CA 29 3:40:23 25-29/57
371. Bryant Anderson, Lindon, UT 18 3:40:29 16-19/5
372. Scott Machemer, Altanta, GA 26 3:40:30 25-29/58
373. Brent Anderson, Lindon, UT 43 3:40:30 40-44/69
374. Timothy Kelley, Brookline, NH 45 3:40:31 45-49/43
375. Eric Dummer, Escondido, CA 35 3:40:35 35-39/62
376. Austen Schroeder, Phoenix, AZ 51 3:40:41 50-54/33
377. Chris Kemper, Palo Alto, CA 30 3:40:42 30-34/70
378. Robert Rogers, Los Gatos, CA 45 3:40:43 45-49/44
379. David Radosevich, San Jose, CA 25 3:40:45 25-29/59
380. Gordon Nelson, Edmonton, AB 39 3:40:49 35-39/63
381. John Hultz, Pittsford, NY 39 3:40:50 35-39/64
382. Charles Bodeen, Yakima, WA 48 3:40:52 45-49/45
383. James Horning, Carmel, CA 34 3:40:56 30-34/71
384. Marc Prioleau, Palo Alto, CA 39 3:40:59 35-39/65
385. Forrest Karr, South Bend, IN 23 3:41:02 20-24/24
386. Scott Giulian, South Bend, IN 22 3:41:02 20-24/25
387. James Dogert, Houston, TX 34 3:41:03 30-34/72
388. Knut Hellandsvik, Menlo Park, CA 28 3:41:14 25-29/60
389. John Lombardi, Ridgewood, NJ 44 3:41:20 40-44/70
390. Richard Averett, San Carlos, CA 46 3:41:21 45-49/46
391. David Morrow, Hermosa Beach, CA 29 3:41:23 25-29/61
392. Dieter Kempf, Palo Alto, CA 33 3:41:25 30-34/73
393. Bud Barela, Salt Lake City, UT 52 3:41:26 50-54/34
394. Robin Gray, Campbell, CA 47 3:41:27 45-49/47
395. Peter Laub, Stanford, CA 26 3:41:29 25-29/62
396. Rick Carlile, Oakland, CA 28 3:41:31 25-29/63
397. Dick Hack, Angola, IN 46 3:41:32 45-49/48
398. Clay Fulfer, Boise, ID 35 3:41:45 35-39/66
399. Thomas Turner, Boise, ID 35 3:41:45 35-39/67
400. Robert Mow, Portland, OR 48 3:41:47 45-49/49
401. Reid Schantz, Scotts Valley, CA 48 3:41:49 45-49/50
402. Dave Johnston, Mapleton, IL 48 3:42:05 45-49/51
403. Rory Norseth, Slc, UT 37 3:42:06 35-39/68
404. Mike Costello, Marina, CA 51 3:42:09 50-54/35
405. William Lee, Bayside, NY 30 3:42:12 30-34/74
406. Bryan Wallace, Spruce Grove, AB 53 3:42:17 50-54/36
407. Malcolm O'hagan, Chevy Chase, MD 59 3:42:21 55-59/11
408. C D McCurry, Jr., Las Vegas, NV 57 3:42:27 55-59/12
409. Oscar Yanez, Seaside, CA 32 3:42:33 30-34/75
410. Daniel Manka, Tucson, AZ 30 3:42:34 30-34/76
411. Michael Mendez, Miami Beach, FL 27 3:42:35 25-29/64
412. Tim Rose, Spreckels, CA 45 3:42:35 45-49/52
413. Gregory Lundgren, Columbus, TX 41 3:42:37 40-44/71
414. Mark Morrow, Phenix City, AL 31 3:42:41 30-34/77
415. Chris Melancon, Palo Alto, CA 31 3:42:44 30-34/78
416. Sam Shimakage, San Jose, CA 49 3:42:46 45-49/53
417. Jay Kent Bien, Kailua, HI 55 3:42:47 55-59/13
418. Markus Wipfli, Burnabyy, BC 28 3:42:48 25-29/65
419. Juan M. Orozco, Wheatland, CA 24 3:42:54 20-24/26
420. Jeff Pauley, San Carlos, CA 29 3:42:58 25-29/66
421. Matt Byers, Morenci, AZ 32 3:42:58 30-34/79
422. Jude Radeski, , 37 3:42:59 35-39/69
423. Mark Edele, Chicago, IL 26 3:42:59 25-29/67
424. Donny Sanchez, Campbell, CA 29 3:43:19 25-29/68
425. Olaf Freerksen, Mannheim, GE 43 3:43:20 40-44/72
426. Ted Peck, Millbrae, CA 49 3:43:21 45-49/54
427. Erik Sampsel, McKinney, TX 34 3:43:27 30-34/80
428. Michael Collins, Pollock Pines, CA 40 3:43:30 40-44/73
429. Walt Wozniak, , 64 3:43:36 60-64/5
430. Michael McLaughlin, Orlando, FL 39 3:43:41 35-39/70
431. Stan Broadfoot, Yorba Linda, CA 47 3:43:56 45-49/55
432. Mark Hellstrom, Aliso Viejo, CA 39 3:44:00 35-39/71
433. Michael Volkov, Stockton, CA 39 3:44:18 35-39/72
434. Michael Berze, Burlington, ON 38 3:44:19 35-39/73
435. Randy Batastini, San Diego, CA 35 3:44:21 35-39/74
436. Randall Finn, Edgewater, NJ 23 3:44:22 20-24/27
437. James Moore, Houston, TX 50 3:44:25 50-54/37
438. Dominic Daly, Gilroy, CA 42 3:44:25 40-44/74
439. Zubin Eggleston, Carmel, CA 17 3:44:30 16-19/6
440. Peter Chrapchynski, Austin, TX 35 3:44:32 35-39/75
441. Tim Morrison, Ongar, Essex, 18 3:44:48 16-19/7
442. Dennis Gard, Olympia, WA 51 3:44:51 50-54/38
443. Carlo De Lorenzi, Timmins, ON 42 3:44:54 40-44/75
444. Mike Frick, San Jose, CA 33 3:44:59 30-34/81
445. James Bohn, San Francisco, CA 28 3:45:01 25-29/69
446. Todd Heyman, Palo Alto, CA 27 3:45:06 25-29/70
447. Joseph Gaeta, Palo Alto, CA 28 3:45:06 25-29/71
448. Gregory Kelly, Clovis, CA 30 3:45:11 30-34/82
449. Marshall Case, San Jose, CA 40 3:45:12 40-44/76
450. Gary Callahan, Sacramento, CA 34 3:45:17 30-34/83
451. Edward Dort, Alpharetta, GA 38 3:45:17 35-39/76
452. Phillip Snyder, Claremont, CA 48 3:45:17 45-49/56
453. Sam Mason, Hollister, CA 43 3:45:20 40-44/77
454. John Corey, San Francisco, CA 31 3:45:24 30-34/84
455. Rod Turner, Corona Del Mar, CA 35 3:45:28 35-39/77
456. Steven Abrahamson, Middlebury, VT 37 3:45:29 35-39/78
457. Michael Hindes, St. Paul, MN 31 3:45:31 30-34/85
458. James Behrens, St. Louis, MO 37 3:45:37 35-39/79
459. Scott Hellstrom, Santa Clara, CA 41 3:45:37 40-44/78
460. Craig Chaya, Loma Linda, CA 22 3:45:40 20-24/28
461. Daniel Biggins, Boise, ID 40 3:45:43 40-44/79
462. Greg Cervenka, Seattle, WA 35 3:45:48 35-39/80
463. Thomas Bugary, Prunedale, CA 46 3:45:48 45-49/57
464. Rick Nagano, Morro Bay, CA 51 3:45:50 50-54/39
465. Steve Lebarron, Edina, MN 39 3:45:50 35-39/81
466. Richard Steinberg, Simi Valley, CA 48 3:45:51 45-49/58
467. Gary Citron, Santa Ana, CA 41 3:45:56 40-44/80
468. Kevin Mazzu, Laguna Niguel, CA 42 3:46:00 40-44/81
469. Jeffrey Thompson, Castro Valley, CA 30 3:46:08 30-34/86
470. Brandon Maughan, Stanford, CA 20 3:46:09 20-24/29
471. George Dies, Palo Alto, CA 47 3:46:10 45-49/59
472. Mark Beattie, Los Angeles, CA 19 3:46:13 16-19/8
473. Gary Washburn, Ames, IA 49 3:46:19 45-49/60
474. Bob Rice, Long Beach, CA 64 3:46:25 60-64/6
475. Sai-Wai Fu, Los Altos Hills, CA 42 3:46:26 40-44/82
476. Jacobo Garzon, Caracas, 35 3:46:39 35-39/82
477. Richard Iazzetta, Agoura, CA 35 3:46:39 35-39/83
478. Tony Wang, West Covina, CA 47 3:46:42 45-49/61
479. Kirby Sampsel, Tampa, FL 40 3:46:44 40-44/83
480. Ben Novak, Agoura Hills, CA 24 3:46:45 20-24/30
481. Bill Kingsley, San Diego, CA 36 3:46:47 35-39/84
482. David Frier, Colorado Springs, CO 39 3:47:09 35-39/85
483. Daniel Purdy, Newtown, PA 38 3:47:13 35-39/86
484. Stephen Bouwkamp, Farmington Hills, 47 3:47:21 45-49/62
485. Patrick Harr, Pacific Grove, CA 44 3:47:23 40-44/84
486. Robert Kates, Vancouver, BC 34 3:47:27 30-34/87
487. Khrys Waller, Shell Beach, CA 22 3:47:29 20-24/31
488. Douglas Oldfield, Carmel, CA 43 3:47:32 40-44/85
489. Dave Dean, Melrose, MA 34 3:47:33 30-34/88
490. Brad Wigdale, Burlingame, CA 31 3:47:47 30-34/89
491. Michael Abraham, Montreal, PQ 33 3:47:51 30-34/90
492. Graham Wildsmith, Akron, OH 58 3:47:53 55-59/14
493. Marc Bresniker, Los Gatos, CA 30 3:48:01 30-34/91
494. Pj Warne, Colorado Springs, CO 35 3:48:03 35-39/87
495. John Partch, Silverthorne, CO 30 3:48:03 30-34/92
496. Adam Kubicki, Monterey, CA 27 3:48:05 25-29/72
497. Carl Thunberg, Alta Loma, CA 41 3:48:13 40-44/86
498. Steve Benoit, Monterey, CA 49 3:48:21 45-49/63
499. Jorge Perez Castro, Mexico, DF 48 3:48:22 45-49/64
500. Ian Fudalla, Coppell, TX 35 3:48:38 35-39/88
501. David Harper, Wichita, KS 37 3:48:39 35-39/89
502. Zach Vanblack, Colorado Springs, CO 31 3:48:40 30-34/93
503. Peter Vaughn, Seaside, CA 52 3:48:41 50-54/40
504. Denis Asselberghs, Brussels 1150, B 41 3:48:45 40-44/87
505. Dennis Wells, Escondido, CA 54 3:48:55 50-54/41
506. Phil Gehin, Reno, NV 46 3:49:00 45-49/65
507. Andrew Finn, Berkeley, CA 26 3:49:03 25-29/73
508. Edward Murphy, St Louis, MO 53 3:49:03 50-54/42
509. Stephen Martin, Kirkland, WA 58 3:49:04 55-59/15
510. Mitch McCaffrey, Seaside, CA 34 3:49:05 30-34/94
511. Keith Spreuer, San Diego, CA 52 3:49:07 50-54/43
512. Winston Ball, Dallas, TX 32 3:49:12 30-34/95
513. Michael Ray, San Francisco, CA 24 3:49:28 20-24/32
514. John Fox, San Francisco, CA 30 3:49:31 30-34/96
515. Joseph Storelli, Del Rey Oaks, CA 45 3:49:31 45-49/66
516. Dave McGuire, Overland Park, KS 45 3:49:32 45-49/67
517. Tom Demaree, Nipomo, CA 40 3:49:40 40-44/88
518. Eric Candelario, Grass Valley, CA 33 3:49:48 30-34/97
519. Bill Fleming, Seattle, WA 42 3:49:51 40-44/89
520. John Cinalli, Phoenix, AZ 30 3:49:59 30-34/98
521. Dave Hoos, Santa Clara, CA 37 3:50:00 35-39/90
522. Matthew Tittle, Urbana, IL 37 3:50:03 35-39/91
523. Ray Johnson, Sparks, NV 38 3:50:08 35-39/92
524. Blair Ford, Menlo Park, CA 27 3:50:09 25-29/74
525. Bernhard Hari, Campbell, CA 25 3:50:09 25-29/75
526. Chris Smallridge, Napa, CA 26 3:50:13 25-29/76
527. David Winter, New York, NY 28 3:50:15 25-29/77
528. Nathan Eagle, Stanford, CA 22 3:50:16 20-24/33
529. Robert Josephs, Seaside, CA 44 3:50:21 40-44/90
530. Michael Price, Elk Ridge, UT 37 3:50:21 35-39/93
531. Tom Frische, San Jose, CA 44 3:50:29 40-44/91
532. Alex Hubbard, Pacific Grove, CA 33 3:50:30 30-34/99
533. Marvin Torres/Vargas, Sparks, NV 19 3:50:30 16-19/9
534. John Griscavage, Palo Alto, CA 27 3:50:37 25-29/78
535. Alfred Ramirez, Salinas, CA 37 3:50:41 35-39/94
536. Randy Jones, Truckee, CA 37 3:50:45 35-39/95
537. Cuong Doan, San Jose, CA 39 3:50:45 35-39/96
538. Dean Meyer, Flower Mound, TX 39 3:50:50 35-39/97
539. Gordon Smith, Lincoln, UT 36 3:50:51 35-39/98
540. Chris Nordeen, Salinas, CA 40 3:51:02 40-44/92
541. Jeremy Shepherd, Edmonton, AB 42 3:51:03 40-44/93
542. Steve Hajosy, Monterey, CA 33 3:51:20 30-34/100
543. Charles Midthun, Monterey, CA 36 3:51:21 35-39/99
544. Greg Stern, Redwood City, CA 24 3:51:22 20-24/34
545. Jonathan Toto, New York, NY 26 3:51:27 25-29/79
546. Michael Caton, Berkeley, CA 25 3:51:28 25-29/80
547. Ken R Hack, Hopewell Jct., NY 48 3:51:28 45-49/68
548. Daniel Sidhu, Sacramento, CA 47 3:51:33 45-49/69
549. Paul Ison, El Cajon, CA 42 3:51:33 40-44/94
550. Matt Bridenbaugh, Boulder, CO 33 3:51:36 30-34/101
551. Jay Carpenter, Bellevue, WW 53 3:51:42 50-54/44
552. Greg Andrews, Agoura Hills, CA 43 3:51:42 40-44/95
553. Dave Rossum, Monterey, CA 49 3:51:45 45-49/70
554. Michael Lwin, Monterey, CA 31 3:51:49 30-34/102
555. Patrick Shartle, Santa Cruz, CA 41 3:51:56 40-44/96
556. Douglas Booms, Portola Valley, CA 28 3:52:00 25-29/81
557. Jerome Focosi, Spokane, WA 52 3:52:01 50-54/45
558. Donald Romano, Laguna Beach, CA 38 3:52:03 35-39/100
559. Rick Joly, Sun Valley, CA 50 3:52:03 50-54/46
560. Ed Wilson, Redwood City, CA 33 3:52:05 30-34/103
561. Ed Robles, San Mateo, CA 24 3:52:09 20-24/35
562. Brian Groves, Edmonton, AB 49 3:52:16 45-49/71
563. Bernard Von Bothmer, Pacific Grove, 42 3:52:18 40-44/97
564. Rich Waller, Buena Park, CA 23 3:52:19 20-24/36
565. David Rabow, Santa Cruz, CA 33 3:52:21 30-34/104
566. Joe Galkowski, Livermore, CA 39 3:52:21 35-39/101
567. Mark Gilbert, West Linn, OR 44 3:52:22 40-44/98
568. Michael McFall, Boulder, CO 27 3:52:23 25-29/82
569. Enrique Woolfolk, Carpinteria, CA 51 3:52:23 50-54/47
570. William Murphy, Monterey, CA 39 3:52:24 35-39/102
571. Lewis Barnes, Jr., Pleasanton, CA 38 3:52:25 35-39/103
572. Ron Suber, Alamo, CA 34 3:52:25 30-34/105
573. Jason Keen, Fraser, CO 32 3:52:28 30-34/106
574. Abner Korn, Mill Valley, CA 41 3:52:39 40-44/99
575. Mike McCune, San Francisco, CA 45 3:52:39 45-49/72
576. Max Kennedy, Charlotte, NC 25 3:52:45 25-29/83
577. Mark Carlson, Monterey, CA 34 3:52:50 30-34/107
578. Michael Wilkes, La Jolla, CA 53 3:52:50 50-54/48
579. Doug Thompson, Marina, CA 41 3:52:52 40-44/100
580. Barry Brill, Fresno, CA 44 3:52:56 40-44/101
581. David Anderson, Carmel, 38 3:53:00 35-39/104
582. Phil Meeks, Atlanta, GA 45 3:53:00 45-49/73
583. Todd Leathers, Glen Mills, PA 32 3:53:00 30-34/108
584. Stuart Shimotsu, Los Angeles, CA 47 3:53:05 45-49/74
585. Marc Frommer, Portland, OR 46 3:53:07 45-49/75
586. Stephen Davidson, Lisburn C. Antrim 31 3:53:17 30-34/109
587. Dennis Lambdin, Sand Springs, OK 41 3:53:18 40-44/102
588. Douglas Polley, Saratoga, CA 40 3:53:22 40-44/103
589. Eric Page, Seatttle, WA 61 3:53:27 60-64/7
590. Brad Armstrong, Los Gatos, CA 44 3:53:36 40-44/104
591. Kevin Finn, Tiburon, CA 37 3:53:40 35-39/105
592. Robert Crain, Dallas, TX 30 3:53:43 30-34/110
593. Don Koski, Portland, OR 50 3:53:45 50-54/49
594. Guillermo Amado, Chulavista, CA 56 3:53:45 55-59/16
595. Peter Verbiscar-Brown, Santa Rosa, 51 3:53:49 50-54/50
596. Drew Blazey, Medina, WA 48 3:53:55 45-49/76
597. Steven Pyle, Northridge, CA 45 3:53:57 45-49/77
598. Christopher Allison, Greeley, CO 35 3:53:57 35-39/106
599. Bill Carver, San Jose, CA 50 3:54:05 50-54/51
600. Steven Wagy, Marina, CA 49 3:54:05 45-49/78
601. Howard Seidel, San Francisco, CA 36 3:54:06 35-39/107
602. Jeff Reynolds, San Rafael, CA 36 3:54:07 35-39/108
603. Jeffrey Kirk, Santa Rosa, CA 33 3:54:07 30-34/111
604. Shane Jimerson, Goleta, CA 29 3:54:08 25-29/84
605. Thurman Wheeler, Seattle, WA 30 3:54:10 30-34/112
606. Ed Hospodar, Boulder, CO 28 3:54:13 25-29/85
607. Steffen Mossner, Stuttgart, GE 30 3:54:15 30-34/113
608. David Kendall, Seattle, WA 52 3:54:19 50-54/52
609. Aloysius Casey, Redlands, CA 67 3:54:20 65-69/1
610. Bertram Sabais, Nauheim, GE 44 3:54:21 40-44/105
611. Fred Durbin, Carnation, WA 52 3:54:21 50-54/53
612. Thomas McManuels, Columbia, MD 26 3:54:24 25-29/86
613. Miguel Ramirez, San Jose, CA 31 3:54:27 30-34/114
614. Steven Chin, Mountain View, CA 28 3:54:31 25-29/87
615. Kim Johnson, Scottsdale, AZ 40 3:54:33 40-44/106
616. Willum Love, San Francisco, CA 30 3:54:37 30-34/115
617. Alan Barnes, Kansas City, MO 43 3:54:38 40-44/107
618. Sean Bryan, Colorado Springs, CO 39 3:54:38 35-39/109
619. Terry Langfitt, Dallas, TX 55 3:54:40 55-59/17
620. Ray Umeda, Saratoga, CA 44 3:54:41 40-44/108
621. Philo Short, Monterey, CA 60 3:54:43 60-64/8
622. Eppa Hite, Palo Alto, CA 47 3:54:43 45-49/79
623. Gunter Tessarek, Bonen, GE 54 3:54:44 50-54/54
624. Terrence Flaherty, Brooklyn, NY 42 3:54:50 40-44/109
625. Jerry Driscoll, Fremont, CA 43 3:54:53 40-44/110
626. Bruce Pretty, Paeonian Springs, VA 41 3:55:01 40-44/111
627. Claude Bruni, Los Angeles, CA 62 3:55:02 60-64/9
628. Kevin Kogler, New York, NY 34 3:55:05 30-34/116
629. Olaf Stuve, Seattle, WA 34 3:55:08 30-34/117
630. Casey Chop, Santa Ana, CA 21 3:55:09 20-24/37
631. Bob Lonsinger, Zionsville, IN 34 3:55:10 30-34/118
632. Mark Payne, Laguna Beach, CA 34 3:55:15 30-34/119
633. Michael Bair, Orange, CA 21 3:55:15 20-24/38
634. Friedrich Neuhoff, Clarksville, TN 46 3:55:18 45-49/80
635. Jim Ingwersen, Colorado Springs, CO 41 3:55:18 40-44/112
636. Joe Wheeler, Atlanta, GA 35 3:55:20 35-39/110
637. Tim Davis, Denver, CO 32 3:55:23 30-34/120
638. Dennis Anderson, Greenville, WI 57 3:55:27 55-59/18
639. Robert Hudson, San Leandro, CA 63 3:55:29 60-64/10
640. James Cornelison, College Place, WA 54 3:55:33 50-54/55
641. Jamie Reeve, Saskatoon, SK 34 3:55:36 30-34/121
642. Peter Gibson, Princeton, NJ 34 3:55:44 30-34/122
643. Jamie Hughes, Calgary, AB 27 3:55:46 25-29/88
644. Paul Tobias, San Fransico, CA 34 3:56:00 30-34/123
645. Manuel Arreola, Sunnyvale, CA 35 3:56:02 35-39/111
646. Jim Tromblee, Apple Valley, CA 25 3:56:12 25-29/89
647. Donald Malcolm, Hamilton, BE 44 3:56:19 40-44/113
648. Timothy McCarty, Newbury Park, CA 31 3:56:22 30-34/124
649. Steven Briggs, Orchard Lake, MI 39 3:56:24 35-39/112
650. Scott Symon, Redwood City, CA 24 3:56:25 20-24/39
651. Rusty Caldwell, Thornton, CO 43 3:56:25 40-44/114
652. Bradley Corr, Mission Viejo, CA 48 3:56:26 45-49/81
653. Jonathan Webb, Farmington, CT 29 3:56:27 25-29/90
654. Matthew Farruggio, Sanfrancisco, CA 43 3:56:28 40-44/115
655. Dan Leibowitz, San Francisco, CA 30 3:56:28 30-34/125
656. Richard Horth, Vancouver, BC 40 3:56:45 40-44/116
657. Charlie Mercer, Beverly Hills, CA 28 3:56:46 25-29/91
658. David Christensen, Ann Arbor, MI 40 3:56:47 40-44/117
659. Scott Morrow, San Francisco, CA 28 3:56:49 25-29/92
660. Marcus Lackey, Jr., Washville, TN 44 3:56:49 40-44/118
661. Bud Moody, Thousand Oaks, CA 52 3:56:49 50-54/56
662. Charles Gendrou, Churchville, NY 48 3:56:50 45-49/82
663. David Griner, New Port Richey, FL 40 3:56:56 40-44/119
664. Paul Keeton, San Jose, CA 47 3:57:00 45-49/83
665. Wiley Christal, Richardson, TX 52 3:57:02 50-54/57
666. Lonnie McCarron, Seaside, CA 28 3:57:03 25-29/93
667. John Nevill, King City, CA 40 3:57:03 40-44/120
668. Andrew Campbell, Foster City, CA 20 3:57:07 20-24/40
669. Eric Zinn, Noblesville, IN 33 3:57:11 30-34/126
670. Nate Carsten, Monterey, CA 18 3:57:12 16-19/10
671. Sean Donahue, Washington, DC 33 3:57:13 30-34/127
672. Dave Corsten, Colorado Springs, CO 30 3:57:16 30-34/128
673. Stephen Sanders, Paradise, CA 34 3:57:20 30-34/129
674. Michael Plaza, Monterey, CA 27 3:57:20 25-29/94
675. Joseph Barrett, Capitola, CA 39 3:57:23 35-39/113
676. Michael Groener, Laguna Beach, CA 54 3:57:28 50-54/58
677. James Blinkhorn, Portland, OR 37 3:57:30 35-39/114
678. John Branigan, Albany, NY 50 3:57:32 50-54/59
679. Laurence Babb, Spokane, WA 48 3:57:35 45-49/84
680. Alexander Price, Springville, CA 31 3:57:36 30-34/130
681. John Nees, San Francisco, CA 41 3:57:37 40-44/121
682. Ed Alvarez, Oxnard, CA 50 3:57:43 50-54/60
683. Roger Ford, Salt Lake City, UT 26 3:57:44 25-29/95
684. Joshua Kletzkin, Bethesda, MD 24 3:57:45 20-24/41
685. Eric Martin, El Cerrito, CA 42 3:57:50 40-44/122
686. Stephen Collis, London, UK 43 3:57:52 40-44/123
687. Chris Irving, San Francisco, CA 26 3:57:52 25-29/96
688. Karl Mueller, Columbus, OH 49 3:57:55 45-49/85
689. Danny O'donnell, Pacific Grove, CA 43 3:57:58 40-44/124
690. Ken Johnson, Newark, CA 48 3:58:02 45-49/86
691. Troy Owens, Woodland Hills, CA 37 3:58:03 35-39/115
692. Paul Enemark, Los Olivos, CA 28 3:58:04 25-29/97
693. Scott Bailey, Chico, CA 29 3:58:11 25-29/98
694. David Vogdes, Austin, TX 39 3:58:16 35-39/116
695. Will Malone, Stanford, CA 21 3:58:18 20-24/42
696. Robert Yturri, Berkeley, CA 31 3:58:19 30-34/131
697. Robert Berger, Tucson, AZ 29 3:58:21 25-29/99
698. James Smith, Indianapolis, IN 36 3:58:21 35-39/117
699. Anthony Wilson, Forest Grove, OR 40 3:58:23 40-44/125
700. John Goodman, Palo Alto, CA 28 3:58:27 25-29/100
701. Blair Bradshaw, San Francisco, CA 31 3:58:28 30-34/132
702. Mike Rosner, Danville, CA 53 3:58:29 50-54/61
703. Richard Yates, Beaverton, OR 41 3:58:34 40-44/126
704. Jim Mathys, Magalia, CA 48 3:58:40 45-49/87
705. Donald Freeman Jr., San Francisco, 38 3:58:44 35-39/118
706. Bob Frier, Oklahoma City, OK 33 3:58:44 30-34/133
707. James Peck, Portland, OR 52 3:58:47 50-54/62
708. Ryan Colburn, Houston, TX 43 3:58:59 40-44/127
709. Rick Cooper, Johnstown, OH 45 3:59:02 45-49/88
710. Robert Lifton, Victoria, BC 50 3:59:07 50-54/63
711. Matthew Cressa, San Carlos, CA 32 3:59:11 30-34/134
712. Gray Ellroot, Armonv, NY 51 3:59:11 50-54/64
713. Fred McNear, Sausalito, CA 34 3:59:14 30-34/135
714. David Lloyd, Altadena, CA 26 3:59:21 25-29/101
715. Scott Levison, Los Osos, CA 36 3:59:26 35-39/119
716. Andrew Gillespie, San Angelo, TX 33 3:59:28 30-34/136
717. Jerel Smith, Boulder Creek, CA 52 3:59:29 50-54/65
718. Greg Rupp, Overland Park, KS 30 3:59:31 30-34/137
719. Ezra Perlman, Palo Alto, CA 27 3:59:33 25-29/102
720. Alejandro Carrillo, McAllen, TX 44 3:59:40 40-44/128
721. Randy Clarahan, Bettendorf, IA 39 3:59:42 35-39/120
722. William Bohn, Danville, CA 30 3:59:48 30-34/138
723. Brad Beegle, Carmel, CA 39 3:59:52 35-39/121
724. Keith Severson, Carmel, CA 42 3:59:54 40-44/129
725. Steve Chen, Costa Mesa, CA 25 3:59:55 25-29/103
726. Chris Pryor, Carmel, CA 32 3:59:55 30-34/139
727. Russell Marsan, Yuba City, CA 35 3:59:59 35-39/122
728. Ricky Townsend, San Jose, CA 33 3:59:59 30-34/140
729. Roy Scellato, Sunnyvale, CA 52 4:00:09 50-54/66
730. Jeff Mathews, Yuba City, CA 33 4:00:16 30-34/141
731. Tom Atkins, Seattle, W 40 4:00:21 40-44/130
732. Sammy R. Flores, Fort Worth, TX 43 4:00:23 40-44/131
733. Francis Nzeutem, San Francisco, CA 26 4:00:27 25-29/104
734. Michael Fitzpatrick, Portland, OR 50 4:00:29 50-54/67
735. Anthony Wenger, Seaside, CA 36 4:00:29 35-39/123
736. David Musters, Santa Clara, CA 38 4:00:39 35-39/124
737. Michael Cuneo, Monterey, CA 46 4:00:40 45-49/89
738. Martin Jung, Frankfurt, 0 37 4:00:41 35-39/125
739. Werner Klamroth, Mexico, DF 63 4:00:41 60-64/11
740. Jerry Loo, New York, NY 32 4:00:45 30-34/142
741. Jeffrey Yamashita, Monterey, CA 38 4:00:48 35-39/126
742. Gary Phillips, Hidden Hills, CA 47 4:00:50 45-49/90
743. Thomas Blackwell, Galveston, TX 44 4:00:50 40-44/132
744. Robert Bartzokas, Point Pleasant, N 48 4:00:51 45-49/91
745. Weisin Chong, San Jose, CA 30 4:00:54 30-34/143
746. Chris Poulson, Dublin, CA 27 4:00:57 25-29/105
747. David Mears, Vancouver, WA 30 4:00:58 30-34/144
748. Christopher Dege, Washington, DC 35 4:01:26 35-39/127
749. Kyle Hensley, Houston, TX 34 4:01:28 30-34/145
750. Tarek Moussa, Mill Valley, CA 39 4:01:30 35-39/128
751. Carlin Doeksen, Devon, AB 27 4:01:31 25-29/106
752. Jim Eagle, Salinas, CA 51 4:01:42 50-54/68
753. Thomas Mackenzie, Denver, CO 36 4:01:47 35-39/129
754. Bob Petersen, Soquel, CA 61 4:01:56 60-64/12
755. Christopher Penafiel, Monterey, CA 23 4:02:01 20-24/43
756. Kevin Reid, Campbell, CA 41 4:02:03 40-44/133
757. Richard Smith, Prunedale, CA 49 4:02:09 45-49/92
758. Paul Barbeau, Spokane, WA 26 4:02:13 25-29/107
759. Vincent Lo Cicero, Port Jefferson, 55 4:02:18 55-59/19
760. Fok-Yan Leung, Pasadena, CA 24 4:02:19 20-24/44
761. Larry Herrera, San Francisco, CA 38 4:02:23 35-39/130
762. Chris Nakasaki, San Jose, CA 42 4:02:25 40-44/134
763. Brian Tsuji, Vancouver, BC 42 4:02:39 40-44/135
764. Jeff Butcher, San Jose, CA 39 4:02:39 35-39/131
765. James Cherry, Los Altos Hills, CA 42 4:02:41 40-44/136
766. Paul Kutschera, New Berlin, WI 65 4:02:42 65-69/2
767. Greg Zyner, San Jose, CA 37 4:02:43 35-39/132
768. Adam Cheslin, Orchard Lake, MI 44 4:02:51 40-44/137
769. James Gregory, Lisle, IL 31 4:02:55 30-34/146
770. Michael Carras, New York, NY 27 4:02:59 25-29/108
771. Michael Trasatti, Bradford, MA 29 4:03:02 25-29/109
772. David Loverude, Tampa, FL 38 4:03:05 35-39/133
773. Ethan Dupris, West St., CA 45 4:03:10 45-49/93
774. Douglas Harper, Modesto, CA 36 4:03:14 35-39/134
775. Dave Ross, Colorado, CO 28 4:03:24 25-29/110
776. Douglas Kessler, Atlanta, GA 51 4:03:32 50-54/69
777. Chin Lin, League City, TX 60 4:03:46 60-64/13
778. Joe Schumaker, Salinas, CA 43 4:03:55 40-44/138
779. Charles Kinder, San Antonio, TX 35 4:04:09 35-39/135
780. Rick Becker, Scotts Valley, CA 35 4:04:09 35-39/136
781. George Cornwall, Kanata, ON 59 4:04:39 55-59/20
782. Paul Temple, Carmel Valley, CA 40 4:04:41 40-44/139
783. Daniel Buckley, Olema, CA 41 4:04:53 40-44/140
784. Ira Beyah, Seaside, CA 51 4:04:58 50-54/70
785. Jonathan Penn, Palo Alto, CA 41 4:05:03 40-44/141
786. Kevin Smith, Pacific Grove, CA 43 4:05:04 40-44/142
787. Fred Kaiser, Sacramento, CA 47 4:05:09 45-49/94
788. Fausto Zapata, Mexico City, DF 27 4:05:17 25-29/111
789. Edward Mills, Calgary, AB 40 4:05:20 40-44/143
790. Peter Fowler, Seaside, CA 31 4:05:26 30-34/147
791. Glenn Renwick, Chagrin Falls, OH 43 4:05:38 40-44/144
792. Randy Kessler, Cherry Hills Village 48 4:05:48 45-49/95
793. Steve Noble, Ontario, CA 35 4:05:51 35-39/137
794. Mark Bordeau, Northglenn, CO 34 4:05:53 30-34/148
795. Joseph Abbate, King Of Prussia, PA 26 4:05:54 25-29/112
796. Nick Jouras, Soquel, CA 45 4:05:55 45-49/96
797. Thomas Sanders, Capitola, CA 57 4:06:00 55-59/21
798. Jon Shoemaker, Carmel, CA 26 4:06:03 25-29/113
799. Paul Cunniff, Redondo Beach, CA 56 4:06:05 55-59/22
800. Alan Young, Auburn, CA 53 4:06:12 50-54/71
801. Phil Morreale, Santa Barbara, CA 41 4:06:13 40-44/145
802. Brian Williams, Houston, TX 38 4:06:14 35-39/138
803. Gary Cooper, Scottsdale, AZ 31 4:06:15 30-34/149
804. Russ Major, Fairfield, CA 29 4:06:17 25-29/114
805. Rick Glessman, Simpsonville, SC 40 4:06:29 40-44/146
806. Michael Woodruff, Phoenix, AZ 37 4:06:30 35-39/139
807. Al Boyce, McFarland, WI 43 4:06:32 40-44/147
808. Richard Gonzales, Watsonville, CA 44 4:06:33 40-44/148
809. Mark Metzger, Pleasant Valley, NY 50 4:06:38 50-54/72
810. John Jolly, Russellville, AL 61 4:06:39 60-64/14
811. Lan Vu, Los Altis, CA 42 4:06:43 40-44/149
812. Michael Cornish, Ridgefield, CT 38 4:06:47 35-39/140
813. John Hurley, Grosse Pointe, MI 35 4:06:48 35-39/141
814. Bruce Ballard, Orchard Lake, MI 39 4:06:55 35-39/142
815. Kurt Kempfer, Littleton, CO 54 4:07:14 50-54/73
816. Gary Unzeitig, Laredo Tx, TX 45 4:07:16 45-49/97
817. Sergeant Pepper, Eureka, CA 51 4:07:17 50-54/74
818. Mark Tramont, West Caldwell, NJ 39 4:07:20 35-39/143
819. Kevin Allen, San Jose, CA 30 4:07:22 30-34/150
820. Rickie Calzada, Laurel, MD 44 4:07:23 40-44/150
821. Timothy Schmal, Santa Cruz, CA 42 4:07:25 40-44/151
822. Ted Mulvaney, Santa Clara, CA 29 4:07:36 25-29/115
823. Richard Westing, King City, CA 39 4:07:38 35-39/144
824. Craig Nelson, Greenwood Vlg, CO 40 4:07:53 40-44/152
825. Doug Taylor, Scottsdale, AZ 55 4:08:01 55-59/23
826. Keith Tischler, Webster, TX 30 4:08:01 30-34/151
827. Sabin Snow, Scottsdale, AZ 57 4:08:02 55-59/24
828. Richard Avila, Aptos, CA 32 4:08:04 30-34/152
829. Adoni Akbar, Oakland, CA 51 4:08:05 50-54/75
830. Vince Silva, Monterey, CA 45 4:08:06 45-49/98
831. Vitas Sipelis, Corona Del Mar, CA 25 4:08:08 25-29/116
832. Bobby Dearmond, Bowling Green, KY 34 4:08:09 30-34/153
833. Larry Parente, San Francisco, CA 27 4:08:19 25-29/117
834. Nathan Johnson, Enid, OK 40 4:08:20 40-44/153
835. David Larsen, Berkeley, CA 29 4:08:25 25-29/118
836. Matt Fenske, Spokane, WA 39 4:08:29 35-39/145
837. Roland Pflugbeil, Siegertsbrunn, 00 60 4:08:34 60-64/15
838. Hans Bleiker, Monterey, CA 62 4:08:35 60-64/16
839. Pascal Leseux, Boulder, CO 39 4:08:37 35-39/146
840. Scott Mills, Alpharetta, GA 52 4:08:40 50-54/76
841. Malcom Patrick, Benicia, CA 52 4:08:42 50-54/77
842. Dave Scholes, Houston, TX 53 4:08:44 50-54/78
843. Robert Good, Los Angeles, CA 54 4:08:47 50-54/79
844. Vincent Hoog, Squamish, BC 35 4:08:50 35-39/147
845. Jean Khabazian, Soutlake, TX 42 4:08:51 40-44/154
846. Martin Kuhn, New York, NY 33 4:08:51 30-34/154
847. Karl Royer, Hayward, CA 39 4:08:59 35-39/148
848. Bruce Moore, Surrey, BC 36 4:09:06 35-39/149
849. Richard Crothers, Pacific Grove, CA 35 4:09:09 35-39/150
850. Tom Smolic, Burwaby, BC 37 4:09:16 35-39/151
851. David Marvel, Twentynine Palms, CA 54 4:09:20 50-54/80
852. Christopher Pett-Ridge, Pittsburgh, 54 4:09:20 50-54/81
853. William Rand, Monterey, CA 56 4:09:24 55-59/25
854. Steve Smoot, El Cajon, CA 41 4:09:25 40-44/155
855. Paul Dowling, Gloucester, 41 4:09:37 40-44/156
856. Jay Lorenzo, Miami, FL 45 4:09:51 45-49/99
857. Bud Lamb, Aptos, CA 47 4:09:53 45-49/100
858. Andrew Kerber, Incline Village, NV 39 4:09:57 35-39/152
859. William Lawrence, Playa Del Rey, CA 58 4:09:57 55-59/26
860. John Butler, Kernersville, NC 32 4:10:00 30-34/155
861. Mel Grimes, , 50 4:10:01 50-54/82
862. Clayton Vreeland, Los Angeles, CA 44 4:10:01 40-44/157
863. Paulo Montenegro, Eugene, OR 29 4:10:02 25-29/119
864. Gerald Kielian, Plainfield, IL 51 4:10:02 50-54/83
865. Bob Savio, Oakland, CA 31 4:10:10 30-34/156
866. Michael Murphy, San Francisco, CA 32 4:10:11 30-34/157
867. Skip Cleaver, Londonderry, NH 54 4:10:20 50-54/84
868. Mark Oppenheim, St. Louis, MO 32 4:10:21 30-34/158
869. Bruce Davidson, St Petersburg, FL 39 4:10:24 35-39/153
870. Steve Domingues, Los Gatos, CA 31 4:10:33 30-34/159
871. David Parks, Reno, NV 37 4:10:34 35-39/154
872. Roy Youngberg, Devon, AB 52 4:10:35 50-54/85
873. Craig Mayer, Monterey, CA 33 4:10:44 30-34/160
874. Kevin Harris, Salinas, CA 43 4:10:45 40-44/158
875. Ramon Silos, Queretaro, QR 41 4:10:48 40-44/159
876. David Jaffe, La Selva Beach, CA 47 4:10:49 45-49/101
877. Partick Hagan, Chattanooga, TN 49 4:10:52 45-49/102
878. Mike Weiss, Santa Monica, CA 36 4:10:55 35-39/155
879. Leon Atkinson-Derman, Santa Cruz, C 26 4:11:13 25-29/120
880. Mike Sothcott, Fremont, CA 48 4:11:19 45-49/103
881. Greg Netzorg, Monterey, CA 50 4:11:21 50-54/86
882. Scot Hagey, La Jolla, CA 33 4:11:28 30-34/161
883. David Alexander, Sunnyvale, CA 27 4:11:32 25-29/121
884. Hermann Haastrup, Rancho Cucamonga, 55 4:11:34 55-59/27
885. Larry Mercer, San Francisco, CA 43 4:11:39 40-44/160
886. Steven Frantz, Baltimore, MD 33 4:11:43 30-34/162
887. Richard Doyle, Monterey, CA 52 4:11:49 50-54/87
888. Gerald Wolf, Minneapolis, MN 30 4:11:49 30-34/163
889. Jim Hays, Gold River, CA 45 4:11:54 45-49/104
890. James Matheny, Culver City, CA 48 4:11:55 45-49/105
891. Jun Li, Mountain View, CA 31 4:11:55 30-34/164
892. Bill Fenley, Soquel, CA 52 4:12:10 50-54/88
893. William Johnston, Arlington, VA 53 4:12:11 50-54/89
894. Doug Barrow, Atlantic Beach, FL 42 4:12:13 40-44/161
895. Steve Zeppegno, Walnut Creek, CA 52 4:12:18 50-54/90
896. James Cropper, Sacramento, CA 44 4:12:20 40-44/162
897. Tim Mc Ardle, Sacramento, CA 54 4:12:27 50-54/91
898. Mike Dieffenbach, Los Angeles, CA 29 4:12:28 25-29/122
899. Eric Lattin, Reno, NV 27 4:12:28 25-29/123
900. Robert Kleidon, San Jose, CA 35 4:12:29 35-39/156
901. Phil Hruska, Santa Barbara, CA 23 4:12:29 20-24/45
902. Zohar Bogin, Folsom, CA 40 4:12:29 40-44/163
903. David Oliver, Carmel, CA 38 4:12:34 35-39/157
904. Thomas Griffiths, Ravenna, OH 46 4:12:42 45-49/106
905. Emil Tung, San Francisco, CA 37 4:12:43 35-39/158
906. Karlton Meadows, Monterey, CA 28 4:12:47 25-29/124
907. Joe Lukan, Oakland, CA 32 4:12:52 30-34/165
908. Eric Aaronian, Los Olivos, CA 23 4:12:55 20-24/46
909. Scott Rendleman, San Jose, CA 33 4:12:58 30-34/166
910. Peter Sturtevant, Centreville, MD 39 4:12:59 35-39/159
911. Justin Call, Centreville, MD 24 4:12:59 20-24/47
912. Ronald Greene, Houston, TX 54 4:13:04 50-54/92
913. James Demetrio, Santa Clara, CA 50 4:13:07 50-54/93
914. Stephen Shoop, Borger, TX 48 4:13:14 45-49/107
915. Gregory Moore, Long Beach, CA 33 4:13:27 30-34/167
916. Tom Kopeika, Chicago, IL 33 4:13:28 30-34/168
917. Jon Ferency, Carmel, IN 32 4:13:30 30-34/169
918. David Oliver, Sacramento, CA 35 4:13:31 35-39/160
919. Michael Nostrand, Bellevue, NE 41 4:13:31 40-44/164
920. Richard Laine, San Carlos, CA 69 4:13:36 65-69/3
921. Daniel Torok, Morrisville, PA 35 4:13:41 35-39/161
922. Michael Kelly, Apple Valley, MN 37 4:13:47 35-39/162
923. Thomas Flowers, Seaside, CA 31 4:13:47 30-34/170
924. Rick Peters, Santa Rosa, CA 50 4:13:48 50-54/94
925. Rich Rovang, Thousand Oaks, CA 49 4:13:53 45-49/108
926. John Pare, Raleigh, NC 39 4:13:58 35-39/163
927. Rick Edson, Sacramonto, CA 52 4:14:00 50-54/95
928. Patrick Rearden, Orlando, FL 45 4:14:03 45-49/109
929. Gerry Burchard, Danville, CA 40 4:14:04 40-44/165
930. Gavin Bong, Redmond, WA 28 4:14:06 25-29/125
931. Scott Sarran, Park Ridge, IL 43 4:14:08 40-44/166
932. Jeff Larsen, San Francisco, CA 27 4:14:12 25-29/126
933. Rakesh Sharma, Fremont, CA 49 4:14:12 45-49/110
934. Scott Price, Tacoma, WA 35 4:14:15 35-39/164
935. Patrick Alladio, Santa Rosa, CA 38 4:14:17 35-39/165
936. John Webb, Lompoc, CA 56 4:14:19 55-59/28
937. Rick Pastore, San Francisco, CA 29 4:14:23 25-29/127
938. Dan Fish, Gilroy, CA 49 4:14:26 45-49/111
939. Dennis Sullivan, Los Olivos, CA 25 4:14:37 25-29/128
940. Kevin Perry, Placentia, CA 30 4:14:38 30-34/171
941. Michael Chusuei, McLean, VA 29 4:14:38 25-29/129
942. David Yarborough, Round Rock, TX 50 4:14:40 50-54/96
943. Thomas Stack, Danville, CA 39 4:14:41 35-39/166
944. Josh Pauley, San Carlos, CA 29 4:14:44 25-29/130
945. Stanley Shimotsu, Los Angeles, CA 50 4:14:48 50-54/97
946. Nobuaki Ninomiya, Hoffman Estates, 44 4:14:48 40-44/167
947. Alden Roberts, Brush Prairie, WA 48 4:14:49 45-49/112
948. Tony Veale, Claremont, ON 28 4:14:53 25-29/131
949. Wayne Jewett, Tucson, AZ 39 4:15:01 35-39/167
950. Kevin Blood, Fremont, CA 39 4:15:05 35-39/168
951. Michael Dorrian, New York, NY 33 4:15:13 30-34/172
952. Darrin Guitreau, Baton Rouge, LA 28 4:15:23 25-29/132
953. Jaime Iglesias, Seaside, CA 32 4:15:40 30-34/173
954. Peter Krasa, Pebble Beach, CA 54 4:15:41 50-54/98
955. Tom Cornwell, South Pasadena, CA 41 4:15:53 40-44/168
956. Michael Nash, Calgary, AB 27 4:15:55 25-29/133
957. Terry Carlyle, Edmonton, AB 49 4:15:57 45-49/113
958. Anthony Burkart, San Diego, CA 32 4:16:07 30-34/174
959. Guenther Werner, Boeblingen, 51 4:16:08 50-54/99
960. Warren Quets, Seaside, CA 35 4:16:11 35-39/169
961. Michael Babb, Santa Rosa, CA 38 4:16:12 35-39/170
962. John Roberts, Farmington, UT 38 4:16:16 35-39/171
963. David Baltazar, San Jose, CA 32 4:16:20 30-34/175
964. Robert Rowen, Reno, NV 42 4:16:21 40-44/169
965. Mark Olson, Monterey, CA 29 4:16:24 25-29/134
966. Mark Deffley, San Diego, CA 32 4:16:25 30-34/176
967. Vern Lee, Portland, OR 57 4:16:30 55-59/29
968. John Rainey, Santa Cruz, CA 49 4:16:30 45-49/114
969. Rolando Uziel, Mexico City, ME 62 4:16:33 60-64/17
970. Troy Knuckles, Newport Coast, CA 35 4:16:34 35-39/172
971. Brian McVeigh, Chapel Hill, NC 42 4:16:35 40-44/170
972. Paul Ting, Alameda, CA 43 4:16:40 40-44/171
973. Ken Azevedo, Santa Cruz, CA 45 4:17:08 45-49/115
974. Ken Le Jeune, Santa Cruz, CA 51 4:17:10 50-54/100
975. Joe Davis, Hayward, CA 56 4:17:15 55-59/30
976. Scott Quesada, Antioch, CA 32 4:17:17 30-34/177
977. Dewain Jenkins, Centerville, UT 68 4:17:17 65-69/4
978. Terry Marciniak, Water Valley, AB 42 4:17:37 40-44/172
979. Steve Amos, Alameda, CA 33 4:17:42 30-34/178
980. Charles Stalzer, Alexandria, VA 71 4:17:43 70-74/1
981. Walter Oucharek, Melville, SK 51 4:17:50 50-54/101
982. Deon Erasmus, Provost, AB 43 4:17:50 40-44/173
983. Edmond Moreland, Dallas, TX 27 4:17:51 25-29/135
984. Deon Human, Powell River, BC 43 4:17:51 40-44/174
985. Jacques Du Toit, Powell River, BC 42 4:17:52 40-44/175
986. Barrie McDonald, Powell River, BC 33 4:17:52 30-34/179
987. Johan Redelinghuys, Melville, SK 33 4:17:55 30-34/180
988. Michael Waters, Dade City, FL 36 4:17:57 35-39/173
989. Lawrence Haeg, Edina, MN 53 4:17:57 50-54/102
990. Timothy Weller, Coral Gables, FL 48 4:18:01 45-49/116
991. Arturo Madril, Monterey, CA 35 4:18:02 35-39/174
992. Gregory Brown, San Francisco, CA 49 4:18:03 45-49/117
993. Erik Uppman, Monterey, CA 19 4:18:10 16-19/11
994. Brian Kenney, Camp Lejeune, NC 28 4:18:19 25-29/136
995. James Staudte, San Francisco, CA 26 4:18:23 25-29/137
996. Gerald Flanagan, San Francisco, CA 33 4:18:25 30-34/181
997. David Torres, Houston, TX 37 4:18:26 35-39/175
998. Paul Cornelius, Sussex, WI 42 4:18:31 40-44/176
999. Craig Bertholf, Spokane, WA 48 4:18:33 45-49/118
1000. Charles Jensen, Santa Rosa, CA 53 4:18:42 50-54/103
1001. Dempsey Dempsey, Liverpool, ME 45 4:18:48 45-49/119
1002. Brian Walsh, Chicago, IL 33 4:18:50 30-34/182
1003. Mark Floyd, Dallas, TX 43 4:18:54 40-44/177
1004. Rainer Skrotzki, Amesbury, MA 46 4:18:58 45-49/120
1005. Jeff Vinion, Santa Barbara, CA 39 4:19:00 35-39/176
1006. Steve Conn, Bellevue, WA 36 4:19:02 35-39/177
1007. Thomas Finnegan, Little Falls, NY 57 4:19:07 55-59/31
1008. Christopher Lemke, Port Orchard, WA 50 4:19:08 50-54/104
1009. Robert G. Anderson, Groton, MA 36 4:19:11 35-39/178
1010. Daniel Cavanaugh, Santa Barbara, CA 41 4:19:13 40-44/178
1011. Jeff Neudorf, St. Catherines, ON 45 4:19:14 45-49/121
1012. Douglas Denn, Leonardtown, MD 35 4:19:14 35-39/179
1013. Robert Martines, San Jose, CA 37 4:19:15 35-39/180
1014. Michael Upton, Catonsville, MD 40 4:19:15 40-44/179
1015. Robert Weisberg, Stanford, CA 53 4:19:15 50-54/105
1016. Richard Foote, New York, NY 35 4:19:15 35-39/181
1017. Helmut Linzbichler, Kapfenberg, A-8 57 4:19:18 55-59/32
1018. Jim Robson, Castro Valley, CA 56 4:19:20 55-59/33
1019. Ken Hughey, Redondo Beach, CA 34 4:19:25 30-34/183
1020. Ben Rotenberg, Redondo Beach, CA 28 4:19:25 25-29/138
1021. Michael Gallagher, West Chester, PA 44 4:19:27 40-44/180
1022. John Mitchell, Brea, CA 42 4:19:34 40-44/181
1023. Mark Stephenson, Toronto, ON 26 4:19:36 25-29/139
1024. Gene Barnett, Austin, TX 64 4:19:36 60-64/18
1025. Sean McLellan, Toronto, ON 27 4:19:42 25-29/140
1026. Matt Walker, Vancouver, BC 26 4:19:48 25-29/141
1027. Horst Fiebig, Dundee, IL 60 4:19:52 60-64/19
1028. Max Su, Boston, MA 32 4:19:54 30-34/184
1029. Marc Stormont, Fairfield, CA 52 4:19:59 50-54/106
1030. David Sullivan, Spokane, WA 35 4:20:03 35-39/182
1031. Michael Simons, Monterey, CA 49 4:20:07 45-49/122
1032. Teofilo Raad, Scottsdale, AZ 29 4:20:07 25-29/142
1033. Dinesh Sharma, Visalia, CA 43 4:20:10 40-44/182
1034. Manuel Campos, San Jose, CA 42 4:20:16 40-44/183
1035. Rakesh Sharma, Houston, TX 47 4:20:16 45-49/123
1036. Tom Kowalski, Burlingame, CA 49 4:20:17 45-49/124
1037. Eric Robison, Issaquah, WA 39 4:20:17 35-39/183
1038. Dave Ginsburg, Los Gatos, CA 36 4:20:17 35-39/184
1039. Terry Rhodes, Newport Beach, CA 59 4:20:27 55-59/34
1040. Patrick Crowley, San Ramon, CA 50 4:20:32 50-54/107
1041. David Holmen, Eagan, MN 37 4:20:35 35-39/185
1042. Michael Kerrick, Santa Cruz, CA 50 4:20:37 50-54/108
1043. Bob Darling, Capitola, CA 46 4:20:38 45-49/125
1044. Dean Wilson, Bellevue, WA 38 4:20:40 35-39/186
1045. Matthew Spence, San Francisco, CA 31 4:20:46 30-34/185
1046. Nathan Blomgren, Tucson, AZ 26 4:20:49 25-29/143
1047. Neil Koren, San Francisco, CA 30 4:20:54 30-34/186
1048. Randy England, Hickory Hills, IL 37 4:21:01 35-39/187
1049. Larry England, Morgan Hill, CA 43 4:21:01 40-44/184
1050. David Silcox, Toronto, ON 49 4:21:06 45-49/126
1051. Larry Wilson, San Mateo, CA 54 4:21:12 50-54/109
1052. Troy Johnson, Clarksville, TN 52 4:21:14 50-54/110
1053. Joseph Schober, Drumore, PA 39 4:21:21 35-39/188
1054. Jon Beeson, Santa Barbara, CA 46 4:21:22 45-49/127
1055. Patrick Kearney, , 34 4:21:24 30-34/187
1056. Otto Loenneker, Los Gatos, CA 54 4:21:26 50-54/111
1057. Nick Leonis, Henderson, NV 57 4:21:29 55-59/35
1058. Lee Cowgill, Harker Heights, TX 40 4:21:30 40-44/185
1059. Jason Griffith, Ridgeley, WV 28 4:21:33 25-29/144
1060. Mark Archacki, Oakland, CA 40 4:21:37 40-44/186
1061. Joseph Schettino, Easton, CT 39 4:21:43 35-39/189
1062. Bennett Davenport, Houston, TX 51 4:21:45 50-54/112
1063. Kenneth Ottenbacher, Galveston, TX 49 4:21:47 45-49/128
1064. Joseph Wells, Tarzana, CA 34 4:21:53 30-34/188
1065. Anthony P. Capone Jr., Carmel, IN 36 4:21:58 35-39/190
1066. Mike Kreaden, Sunnyvale, CA 36 4:22:01 35-39/191
1067. Michael Carney, Hummelstown, PA 25 4:22:03 25-29/145
1068. Charles Rowan, McLean, VA 41 4:22:06 40-44/187
1069. David Clarke, Hollister, CA 46 4:22:10 45-49/129
1070. Siegfried Hodapp, Bedford Hills, NY 57 4:22:13 55-59/36
1071. Michael Savage, Cohasset, MA 49 4:22:13 45-49/130
1072. Shane Ottmann, Columbia, MO 27 4:22:21 25-29/146
1073. Duskin Jasper, New York, NY 27 4:22:24 25-29/147
1074. Chris Sword, Denver, CO 30 4:22:25 30-34/189
1075. Tom Bednar, New Brighton, MN 44 4:22:30 40-44/188
1076. Amnon Goodman, San Francisco, CA 47 4:22:38 45-49/131
1077. James Anderson, Menlo Park, CA 45 4:22:42 45-49/132
1078. William Roden, Stanford, CA 51 4:22:43 50-54/113
1079. Jim Kravchonok, Crystal Bay, NV 42 4:22:45 40-44/189
1080. Robert Holzhauer, Seaside, CA 40 4:22:45 40-44/190
1081. David Rasmussen, Seaside, CA 32 4:22:45 30-34/190
1082. Bill Gormley, Monterey, CA 34 4:22:47 30-34/191
1083. Kaigo Hwang, Brown Deer, WI 28 4:22:47 25-29/148
1084. Christopher Grinton, Mainz, 36 4:22:48 35-39/192
1085. Kurt Rosenkrantz, Oakland, CA 26 4:22:53 25-29/149
1086. William Mann, Buffalo, NY 52 4:22:54 50-54/114
1087. George Franklin, Tucson, AZ 45 4:22:58 45-49/133
1088. Dave Noltensmeyer, Lenexa, KS 50 4:22:59 50-54/115
1089. John Gyselbrecht, Campbell, CA 31 4:23:01 30-34/192
1090. James Martin, Seattle, WA 33 4:23:02 30-34/193
1091. Ray Monavar, San Jose, CA 35 4:23:07 35-39/193
1092. Olli Seppanen, Oakland, CA 54 4:23:10 50-54/116
1093. Ian Williams, Sunnyvale, CA 32 4:23:15 30-34/194
1094. Frank Royos, King City, CA 35 4:23:19 35-39/194
1095. Wendell Keith, Whittier, CA 57 4:23:29 55-59/37
1096. T. L. Johnson, Pleasanton, CA 41 4:23:35 40-44/191
1097. Jeremy Dodd, New York, NY 35 4:23:35 35-39/195
1098. Kevin James, Lawrence, KS 25 4:23:36 25-29/150
1099. Aaron James, Des Moines, IA 27 4:23:36 25-29/151
1100. Ed Sumner, Brentwood, CA 51 4:23:41 50-54/117
1101. Le Nguyen, Fremont, CA 37 4:23:42 35-39/196
1102. Reed Harris, Davis, CA 48 4:23:43 45-49/134
1103. Tim Sadler, Monterey, CA 43 4:23:44 40-44/192
1104. Stephen Snodgrass, Watsonville, CA 44 4:23:48 40-44/193
1105. Jeffrey Johnson, Tahoe City, CA 37 4:23:54 35-39/197
1106. John Buckley, San Francisco, CA 37 4:23:54 35-39/198
1107. Richard T Homan, Menlo Park, CA 57 4:24:02 55-59/38
1108. David Hill, Adrian, MI 31 4:24:13 30-34/195
1109. Jacob Jenson, Monterey, CA 23 4:24:17 20-24/48
1110. Tim Garton, Stanford, CA 20 4:24:20 20-24/49
1111. John Lippard, Dhahran, SA 52 4:24:21 50-54/118
1112. Aaron Lippard, Brigham City, UT 25 4:24:21 25-29/152
1113. Michael Hines, Steamboat Springs, C 47 4:24:25 45-49/135
1114. Martin Macias, Hilmar, CA 34 4:24:28 30-34/196
1115. Caleb Lippard, Brigham City, UT 22 4:24:35 20-24/50
1116. Mark Harter, Las Vegas, NV 29 4:24:41 25-29/153
1117. Ronald Key, San Jose, CA 52 4:24:42 50-54/119
1118. Douglas Toby, Pacific Grove, CA 34 4:24:47 30-34/197
1119. Mitchell Matthews, Pacific Grove, C 40 4:24:47 40-44/194
1120. Lawrence Duckart, Elizabethtown, PA 60 4:24:55 60-64/20
1121. Frederick Kaynor, San Francisco, CA 36 4:24:56 35-39/199
1122. Scott St.Romain, Metairie, LA 41 4:25:02 40-44/195
1123. Jim Weir, Covington, LA 49 4:25:02 45-49/136
1124. Valdemar Arild, Cupertino, CA 34 4:25:05 30-34/198
1125. Ralph Collins, Houston, TX 51 4:25:13 50-54/120
1126. Michael Carpenter, Tacoma, WA 39 4:25:16 35-39/200
1127. Joe Seifert, Helena, MT 42 4:25:18 40-44/196
1128. Donald Murphy, Walnut Creek, CA 37 4:25:20 35-39/201
1129. William Frank, Sacramento, CA 36 4:25:22 35-39/202
1130. Wes Killion, Loveland, CO 40 4:25:25 40-44/197
1131. Bill Richardson, Vancouver, BC 39 4:25:29 35-39/203
1132. Romeo Supnet, Fremont, CA 48 4:25:32 45-49/137
1133. David Hann, San Leandro, CA 40 4:25:36 40-44/198
1134. Russell La Forte, Galveston, TX 34 4:25:41 30-34/199
1135. Craig Hannon, Dallas, TX 27 4:25:43 25-29/154
1136. Randy Lakey, Danville, IL 31 4:25:53 30-34/200
1137. Gary Munson, Los Angeles, CA 55 4:25:57 55-59/39
1138. Steven Murray, Eagan, MN 42 4:25:57 40-44/199
1139. Gary Vercellino, Sunnyvale, CA 52 4:26:01 50-54/121
1140. Mitch Weathers, Fair Oaks, CA 27 4:26:03 25-29/155
1141. Arthur Guarascio, Pacific Grove, CA 44 4:26:03 40-44/200
1142. Doug Wathen, Laguna Niguel, CA 35 4:26:09 35-39/204
1143. Kurt Hollmer, Stanton, CA 42 4:26:12 40-44/201
1144. David Carlson, San Diego, CA 38 4:26:13 35-39/205
1145. Christopher Alexander, Carmel, CA 28 4:26:23 25-29/156
1146. Barry Levy, Los Angeles, CA 26 4:26:24 25-29/157
1147. Matthew Robertson, Denver, CO 29 4:26:24 25-29/158
1148. Norman Reitter, Seaside, CA 29 4:26:24 25-29/159
1149. Steve Perna, Bellevue, WA 41 4:26:25 40-44/202
1150. Richard Schaper, San Francisco, CA 54 4:26:27 50-54/122
1151. Richard Riley, Calabasas, CA 53 4:26:30 50-54/123
1152. Dan Browning, Monterey, CA 49 4:26:32 45-49/138
1153. Nick Pavlinic, Crofton, MD 47 4:26:32 45-49/139
1154. Fred Hobbs, Denver, CO 30 4:26:38 30-34/201
1155. Mike Forman, Dallas, TX 49 4:26:41 45-49/140
1156. John Hutcherson, Monterey, CA 65 4:26:41 65-69/5
1157. Nicholas To, San Jose, CA 36 4:26:43 35-39/206
1158. Charlie Unger, Morro Bay, CA 65 4:26:44 65-69/6
1159. Barry Pinchoff, New York City, NY 44 4:26:49 40-44/203
1160. Donald Wheelock, Redlands, CA 50 4:26:51 50-54/124
1161. Kenneth Purucker, Long Beach, CA 62 4:26:54 60-64/21
1162. Michael North, Metairie, LA 34 4:26:57 30-34/202
1163. Clete McConville, Watsonville, CA 37 4:27:00 35-39/207
1164. Ronald Baers, Newport Beach, CA 57 4:27:02 55-59/40
1165. Rick Neubauer, Gardnerville, NV 50 4:27:05 50-54/125
1166. Steven Neubauer, Oakley, CA 48 4:27:06 45-49/141
1167. William Olmstead, Juneau, AK 44 4:27:19 40-44/204
1168. Steven Schoenherr, Cordova, TN 59 4:27:26 55-59/41
1169. Dan Wynne, Martinez, CA 39 4:27:28 35-39/208
1170. Michael Hartnett, Campbell, CA 58 4:27:31 55-59/42
1171. David Nakashima, Seaside, CA 51 4:27:31 50-54/126
1172. Bill Schildknecht, Burlingame, CA 32 4:27:32 30-34/203
1173. Stephen Derenzo, Pinole, CA 57 4:27:33 55-59/43
1174. Michael Djubasak, Monterey, CA 46 4:27:35 45-49/142
1175. Paul Sica, Boulder, CO 28 4:27:37 25-29/160
1176. Gary Atkins, San Jose, CA 43 4:27:48 40-44/205
1177. Stephen Stout, Portland, OR 43 4:27:53 40-44/206
1178. Neal Dempsey, Monte Sereno, CA 58 4:28:07 55-59/44
1179. Doug McClintock, Plano, TX 45 4:28:11 45-49/143
1180. Michael Heaney, Calgary, AL 46 4:28:16 45-49/144
1181. John Heaney, Victoria, BC 37 4:28:17 35-39/209
1182. Keith Yoshikawa, Modesto, CA 43 4:28:19 40-44/207
1183. Hiroshi Uchida, Tokyo, JP 68 4:28:20 65-69/7
1184. Michael Raffee, Pleasanton, CA 44 4:28:23 40-44/208
1185. Doug Potocki, Decatur, LA 38 4:28:24 35-39/210
1186. Daniel Lyons, Cazenovia, NY 35 4:28:31 35-39/211
1187. Brian Dewitt, Woodland Hills, CA 32 4:28:32 30-34/204
1188. Devon Simpson, Pearland, TX 47 4:28:33 45-49/145
1189. Patrick Fearon, Orinda, CA 46 4:28:34 45-49/146
1190. Michael Stebbins, Pacific Grove, CA 39 4:28:39 35-39/212
1191. Dennis Waterhouse, , 46 4:28:44 45-49/147
1192. Stanley Justice, Manhattan Beach, C 43 4:28:53 40-44/209
1193. Keeney Willis, Newport Beach, CA 29 4:28:55 25-29/161
1194. Christopher Rowlison, Boise, ID 29 4:28:55 25-29/162
1195. Paul Grindel, Grand Rapids, MI 62 4:28:56 60-64/22
1196. Fred Bright, San Diego, CA 56 4:28:59 55-59/45
1197. Van Doze, Santa Clara, CA 40 4:29:00 40-44/210
1198. Richard Monday, Atlanta, GA 43 4:29:01 40-44/211
1199. Tom Dawson, Roswell, GA 51 4:29:02 50-54/127
1200. George Chernowski, Orchard Park, NY 53 4:29:05 50-54/128
1201. George Cook Jr, Gold River, CA 46 4:29:31 45-49/148
1202. Kevin Schoenfeld, Pleasanton, CA 42 4:29:36 40-44/212
1203. Brian Gabelman, Los Angeles, CA 50 4:29:37 50-54/129
1204. John Holloway, Seaside, CA 48 4:29:39 45-49/149
1205. Donald Arthur, Santa Cruz, CA 49 4:29:53 45-49/150
1206. Bernard Comito, San Jose, CA 37 4:29:59 35-39/213
1207. Mats Kinnison, Salt Lake City, UT 43 4:30:00 40-44/213
1208. Ralph Lissaur, Scottsdale, AZ 42 4:30:01 40-44/214
1209. Jamess Kalafut, Peachtree City, GA 35 4:30:02 35-39/214
1210. Peter Moberly, Suisun City, CA 32 4:30:05 30-34/205
1211. Gerald Hoenig, Euless, TX 44 4:30:16 40-44/215
1212. Winston Lee, San Francsco, CA 50 4:30:17 50-54/130
1213. Francesco Mele, Calgary, AB 35 4:30:34 35-39/215
1214. Robert Winkleblack, Pacific Grove, 46 4:30:35 45-49/151
1215. Ildefonso Nava, , 29 4:30:37 25-29/163
1216. Bill Moritz, Monterey, CA 56 4:30:43 55-59/46
1217. Matthew Lamothe, Monterey, CA 30 4:30:51 30-34/206
1218. Clark Thompson, Orinda, CA 51 4:31:00 50-54/131
1219. Robert French, Wauwatosa, WI 38 4:31:05 35-39/216
1220. Greg Hurchalla, Woodlyn, PA 29 4:31:08 25-29/164
1221. Steven Ames, Sacramento, CA 39 4:31:22 35-39/217
1222. Oliver Hunt Bartine Iv, Landenberg, 46 4:31:24 45-49/152
1223. Nick Cassino, Tacoma, WA 39 4:31:27 35-39/218
1224. Chris Kaufman, Tucker, GA 35 4:31:29 35-39/219
1225. Mike Binder, Salinas, CA 42 4:31:35 40-44/216
1226. David Mondress, Portland, OR 39 4:31:40 35-39/220
1227. Richard Westbrook, Monterey, CA 33 4:31:43 30-34/207
1228. John Reichel, Santa Maria, CA 33 4:31:43 30-34/208
1229. Chris Petitte, Temecula, CA 43 4:31:47 40-44/217
1230. Aaron Smith, New York, NY 26 4:31:57 25-29/165
1231. Eric Swenson, Campbell, CA 37 4:32:03 35-39/221
1232. Bryan Zielinski, New York, NY 37 4:32:27 35-39/222
1233. Matt Covey, Campbell, CA 39 4:32:33 35-39/223
1234. Gary McCaskill, Salinas, CA 54 4:32:36 50-54/132
1235. Mattias Klintenberg, Berkeley, CA 30 4:32:37 30-34/209
1236. Mark Chrusz, Rochester, NH 47 4:32:42 45-49/153
1237. Chris Jones, Princeton, NJ 25 4:32:47 25-29/166
1238. Chris Skiff, Cayucos, CA 36 4:32:48 35-39/224
1239. Jay Burdick, Irvine, CA 45 4:32:55 45-49/154
1240. Chris Gilbert, Orinda, CA 41 4:33:02 40-44/218
1241. Larry Golden, Capitola, CA 41 4:33:03 40-44/219
1242. Bill Hatch, Monterey, CA 41 4:33:13 40-44/220
1243. Andrew Rogers, Houston, TX 24 4:33:16 20-24/51
1244. Rob Kay, Menlo Park, CA 46 4:33:22 45-49/155
1245. Dick Coughlin, Los Gatos, CA 45 4:33:31 45-49/156
1246. Sana Carlyle, Summerland, CA 33 4:33:31 30-34/210
1247. Andres Zamora, Turlock, CA 29 4:33:33 25-29/167
1248. Dilip Waghray, Nepean, ON 49 4:33:35 45-49/157
1249. Rick Swayne, Los Gatos, CA 48 4:33:38 45-49/158
1250. Derrick Volk, Los Gatos, CA 29 4:33:39 25-29/168
1251. John Cartoscelli, Yuba City, CA 38 4:33:41 35-39/225
1252. Michael Cartoscelli, Yuba City, CA 33 4:33:42 30-34/211
1253. Mike Bartlett, Yuba City, CA 33 4:33:42 30-34/212
1254. Pete Edwards, Reedsburg, WI 50 4:33:50 50-54/133
1255. Stephen Blenden, Orlando, FL 38 4:33:56 35-39/226
1256. Randy Becker, Palo Alto, CA 28 4:34:01 25-29/169
1257. Russell Clark, Bakersfield, CA 41 4:34:04 40-44/221
1258. Brian McDonald, Princeton, NJ 39 4:34:04 35-39/227
1259. Eric Guefen, Los Angeles, CA 33 4:34:10 30-34/213
1260. Jerry Miller, Dallas, TX 56 4:34:13 55-59/47
1261. Marc Lieberman, Monterey, CA 52 4:34:13 50-54/134
1262. Elmer Smoogen, Lancaster, CA 56 4:34:17 55-59/48
1263. Jim Smoogen, San Diego, CA 49 4:34:17 45-49/159
1264. Bill Somoza, San Francisco, CA 43 4:34:25 40-44/222
1265. Jim Robeson, Pacific Grove, CA 56 4:34:31 55-59/49
1266. Robert Bevelacqua, Reston, VA 33 4:34:31 30-34/214
1267. Binh Hoang, Santa Clara, CA 39 4:34:38 35-39/228
1268. Richard Nauck, Monterey, CA 25 4:34:40 25-29/170
1269. Bill Cox, Carmel, CA 48 4:34:42 45-49/160
1270. Al Winzerling, Tucson, AZ 54 4:34:45 50-54/135
1271. John Morin, Monterey, CA 19 4:34:48 16-19/12
1272. Peter Maretz, San Diego, CA 36 4:34:53 35-39/229
1273. Rich Wotkun, Highland, IN 46 4:34:58 45-49/161
1274. Jerry Soria, Stockton, CA 56 4:35:01 55-59/50
1275. Fraser Keith, Burlingame, CA 50 4:35:01 50-54/136
1276. Eric Bellfort, San Francisco, CA 30 4:35:04 30-34/215
1277. Raymond Cirerol, Goleta, CA 42 4:35:05 40-44/223
1278. Richard White, Philadelphia, PA 39 4:35:08 35-39/230
1279. Stan Hannath, Newlands Cape Town, 52 4:35:18 50-54/137
1280. Keith Bowler, Scottsdale, AZ 39 4:35:19 35-39/231
1281. Fabrice Rondia, Monterey, CA 25 4:35:23 25-29/171
1282. Paulalan Genstler, Salinas, CA 50 4:35:34 50-54/138
1283. Darrin Stobaugh, San Jose, CA 31 4:35:44 30-34/216
1284. Jerry Norton, Pacific Grove, CA 48 4:35:48 45-49/162
1285. Chuck Sharpe, Dallas, TX 28 4:35:49 25-29/172
1286. Michael P Zyniewicz, Marietta, GA 48 4:35:52 45-49/163
1287. Timothy Fender, San Francisco, CA 32 4:36:08 30-34/217
1288. Robert Haynie, Los Gatos, CA 54 4:36:12 50-54/139
1289. Robert Chaplin, Monterey, CA 50 4:36:14 50-54/140
1290. Dhar Carman, Dallas, TX 56 4:36:14 55-59/51
1291. David Gelfound, Simi Valley, CA 35 4:36:17 35-39/232
1292. Berkeley Johnson, Santa Barbara, CA 37 4:36:28 35-39/233
1293. Frederick Kaynor, , 36 4:36:58 35-39/234
1294. Doug Leighton, San Mateo, CA 33 4:36:58 30-34/218
1295. Kevin Foth, San Diego, CA 38 4:37:02 35-39/235
1296. Kent McBrayer, East Peoria, IL 58 4:37:21 55-59/52
1297. John Farrell, Sacramento, CA 49 4:37:33 45-49/164
1298. John Perantoni, Atlanta, GA 27 4:37:40 25-29/173
1299. Shon Kelley, Modesto, CA 44 4:37:48 40-44/224
1300. Dick Yaeger, Aptos, CA 70 4:37:53 70-74/2
1301. Dick Ramsey, Salinas, CA 46 4:37:53 45-49/165
1302. Umberto D'ambrosio, Pebble Beach, C 64 4:37:54 60-64/23
1303. Han Ko, San Jose, CA 41 4:38:14 40-44/225
1304. Ramon Dominguez, Victorville, CA 52 4:38:22 50-54/141
1305. Bill Harper, Roswell, GA 33 4:38:31 30-34/219
1306. Stephen Greensted, London, GB 46 4:38:31 45-49/166
1307. Bob Copeland, Roswell, GA 33 4:38:32 30-34/220
1308. Leo Rogato, Monterey, CA 20 4:38:35 20-24/52
1309. Jack Thomas, Seaside, CA 31 4:38:35 30-34/221
1310. Robert Balian, Lexington, MA 26 4:38:36 25-29/174
1311. Miguel Quiane, , 36 4:38:41 35-39/236
1312. Andrew Glassman, Denver, CO 29 4:38:50 25-29/175
1313. John Rooke, Sacramento, CA 36 4:39:00 35-39/237
1314. Tom Jackman, Los Angeles, CA 53 4:39:13 50-54/142
1315. Craig Seelig, Soledad, CA 28 4:39:19 25-29/176
1316. Steven Hallam, Santa Cruz, CA 29 4:39:22 25-29/177
1317. James McPhail, San Francisco, CA 34 4:39:23 30-34/222
1318. Gary Davis, Allentown, PA 44 4:39:24 40-44/226
1319. David Shaw, Palo Alto, CA 32 4:39:26 30-34/223
1320. Armando Martinez, San Jose, CA 61 4:39:34 60-64/24
1321. Alex Spearman, Portland, OR 32 4:39:36 30-34/224
1322. Clark West, Reno, NV 44 4:39:42 40-44/227
1323. Mark Lake, Calgary, AB 45 4:39:52 45-49/167
1324. Biagio Mele, Calgary, AB 37 4:40:00 35-39/238
1325. Michael Sinai, Monterey, CA 33 4:40:12 30-34/225
1326. Timothy Schuman, San Francisco, CA 35 4:40:15 35-39/239
1327. Stephen Henry, Berkeley, CA 38 4:40:29 35-39/240
1328. James Comstock, Victoria, TX 44 4:40:31 40-44/228
1329. Dennis Conner, Eugene, OR 46 4:40:32 45-49/168
1330. Mark McArdle, Burbank, CA 49 4:40:33 45-49/169
1331. Michael Malarkey, Washington, DC 28 4:40:36 25-29/178
1332. John Silveira, Salinas, CA 40 4:40:44 40-44/229
1333. Joshua Parker, Los Olivos, CA 25 4:40:55 25-29/179
1334. Roy Benstead, Seal Beach, CA 63 4:41:04 60-64/25
1335. Icaro Vazquez, Mountain View, CA 30 4:41:06 30-34/226
1336. Monty Wood, Santa Fe, NM 38 4:41:09 35-39/241
1337. Michael Kopp, Oakland, CA 25 4:41:10 25-29/180
1338. Doug Sandy, Pacific Grove, CA 31 4:41:11 30-34/227
1339. Erik Naisbitt, Sacramento, CA 49 4:41:17 45-49/170
1340. Charley Cross, Folsom, CA 42 4:41:20 40-44/230
1341. Patrick Cross, Monterey, CA 39 4:41:21 35-39/242
1342. Jeff Lloyd, San Jose, CA 34 4:41:23 30-34/228
1343. Ray Wilkes, Fairfax, CA 63 4:41:27 60-64/26
1344. Gary Hesterberg, Montara, CA 37 4:41:30 35-39/243
1345. Jay S. Smith, Westminster, CO 35 4:41:34 35-39/244
1346. Brian Kirk, Carmel, CA 28 4:41:39 25-29/181
1347. Tien Chu, San Jose, CA 37 4:41:39 35-39/245
1348. Hugo Ferlito, Carmel, CA 55 4:41:00 55-59/53
1349. Dale Fambrini, San Jose, CA 62 4:41:43 60-64/27
1350. Lawton Warzala, Chicago, IL 40 4:41:50 40-44/231
1351. Edilberto MontaÑo, Cali, 39 4:41:59 35-39/246
1352. David Hoyer, Houston, TX 43 4:42:10 40-44/232
1353. Dieter Ratsch, San Pedro, CA 57 4:42:12 55-59/54
1354. Michael Sanson, Malibu, CA 60 4:42:23 60-64/28
1355. Bob Kopenec, Carlsbad, CA 46 4:42:31 45-49/171
1356. Eugene Morel, Kansas City, MO 45 4:42:36 45-49/172
1357. Mark Szeto, Union City, CA 36 4:42:40 35-39/247
1358. Robert Penney, Flower Mound, TX 40 4:42:52 40-44/233
1359. Michael Turnbull, Hong Kong, CH 48 4:42:57 45-49/173
1360. Alan Macy, Berkeley, CA 45 4:42:59 45-49/174
1361. David Zalewski, Long Beach, CA 36 4:43:08 35-39/248
1362. Jo Groner, Lake Oswego, OR 53 4:43:10 50-54/143
1363. Henry T. Gong, Salinas, CA 55 4:43:18 55-59/55
1364. Mick Arthur, Grove City, OH 48 4:43:19 45-49/175
1365. Tim Murphy, Oakland, CA 34 4:43:19 30-34/229
1366. John Dye, Pacific Grove, CA 30 4:43:24 30-34/230
1367. Buz Buckley, Santa Rosa, CA 50 4:43:32 50-54/144
1368. Peter Zinsli, Citrus Heights, CA 45 4:43:35 45-49/176
1369. Rob Byrne, Danville, CA 41 4:43:36 40-44/234
1370. Franklin Fisher, Northridge, CA 39 4:43:36 35-39/249
1371. Benjamin Sharp, Manhattan Beach, CA 29 4:43:37 25-29/182
1372. Wallace Nichols, San Francisco, CA 31 4:43:42 30-34/231
1373. William Crocker, Seattle, WA 34 4:43:42 30-34/232
1374. Jerome O'connor, Sunnyvale, CA 46 4:43:43 45-49/177
1375. Phil Anderson, Arlington, VA 61 4:43:48 60-64/29
1376. Charles Mallory, Columbia, CA 51 4:43:53 50-54/145
1377. Kelly Robertson, Santa Cruz, CA 39 4:44:04 35-39/250
1378. Peter Fish, Gold Hill, OR 63 4:44:07 60-64/30
1379. Henry Franco, Santa Barbara, CA 56 4:44:14 55-59/56
1380. Zak Martinkosky, San Francisco, CA 26 4:44:23 25-29/183
1381. David Tai, Sacramento, CA 44 4:44:33 40-44/235
1382. Greg Smith, London, ON 45 4:44:34 45-49/178
1383. David Colburn, Edmonton, AB 51 4:44:36 50-54/146
1384. Donald Herring, St. Petersburg, FL 57 4:44:40 55-59/57
1385. Al Hawker, Littleton, CO 51 4:44:59 50-54/147
1386. Paul Puckett, Quantico, VA 49 4:45:09 45-49/179
1387. Pat Macmillan, Marietta, GA 55 4:45:16 55-59/58
1388. Harry Sokolow, Houston, TX 43 4:45:17 40-44/236
1389. Luis Ondarza, Chula Vista, CA 46 4:45:23 45-49/180
1390. Mike Klesowitch, Monterey, CA 24 4:45:24 20-24/53
1391. Adam Powers, Seaside, CA 34 4:45:24 30-34/233
1392. Jose Luis Escalera, Puebla, ME 37 4:45:27 35-39/251
1393. Chip Nayak, Los Altos, CA 36 4:45:35 35-39/252
1394. Michael Marshall, Portland, OR 40 4:45:43 40-44/237
1395. Todd Engstrom, Portland, OR 29 4:45:43 25-29/184
1396. Tony Donagrechia, Redondo Beach, CA 42 4:45:58 40-44/238
1397. Eric Hilty, Denver, CO 33 4:46:01 30-34/234
1398. Don Laursen, Bellevue, WA 39 4:46:17 35-39/253
1399. Arend Verweij, Los Altos, CA 39 4:46:23 35-39/254
1400. Richard Soppe, Fresno, CA 29 4:46:31 25-29/185
1401. John Cerney, Salinas, CA 45 4:46:39 45-49/181
1402. Gerald Sweeney, Jr., Hinsdale, IL 46 4:46:45 45-49/182
1403. John Williams, Hinsdale, IL 36 4:46:46 35-39/255
1404. Eggbert Brophy, Corpus Christi, TX 24 4:46:54 20-24/54
1405. John King, Minneapolis, MN 48 4:46:55 45-49/183
1406. Geoff McKnight, Los Angeles, CA 23 4:46:57 20-24/55
1407. Marc Garner, Berkeley, CA 44 4:47:07 40-44/239
1408. Christopher Growney, Hermosa Beach, 26 4:47:10 25-29/186
1409. Tom Carlyle, Goleta, CA 62 4:47:12 60-64/31
1410. Rolf Scheel, Pacific Grove, CA 66 4:47:15 65-69/8
1411. Peter Hackbert, Pebble Beach, CA 53 4:47:20 50-54/148
1412. Dick Whitfield, Newark, IL 42 4:47:21 40-44/240
1413. Ernie Morales, Monterey Park, CA 62 4:47:30 60-64/32
1414. Clarence McCullough, Santa Cruz, CA 47 4:47:31 45-49/184
1415. Michael Lowit, Charlottesville, VA 27 4:47:38 25-29/187
1416. Jon Salisbury, Slo, CA 20 4:47:47 20-24/56
1417. David Martula, Hadley, MA 54 4:47:49 50-54/149
1418. Robert Perlman, Evanston, IL 60 4:47:56 60-64/33
1419. Stephen Wood, Brantford, ON 45 4:48:04 45-49/185
1420. Armando Soto, Granada Hills, CA 55 4:48:05 55-59/59
1421. Jeff Isaacson, Pacific Grove, CA 36 4:48:11 35-39/256
1422. Lane Nakaski, San Jose, CA 47 4:48:16 45-49/186
1423. Dana Mosell, Walnut, CA 47 4:48:23 45-49/187
1424. Colin Orr, Dublin, CA 23 4:48:32 20-24/57
1425. Alan Steginsky, Worthington, OH 42 4:48:45 40-44/241
1426. David Purucker, Long Beach, CA 65 4:48:48 65-69/9
1427. Kyle Yamasaki, Santa Clara, CA 23 4:48:53 20-24/58
1428. Lyle Baker, Arroyo Grande, CA 36 4:49:01 35-39/257
1429. James Meadows, San Jose, CA 26 4:49:10 25-29/188
1430. David Hastings, Orange Park, FL 40 4:49:15 40-44/242
1431. Bob Tatum, Orange Park, FL 55 4:49:17 55-59/60
1432. Peter Wiinikka, Modesto, CA 59 4:49:25 55-59/61
1433. Stephen Harkins, Santa Isabel, CA 49 4:49:34 45-49/188
1434. Baxter Dunn III, Manteca, C 31 4:50:08 30-34/235
1435. Frank Fiedler, Morro Bay, CA 72 4:50:16 70-74/3
1436. Shalendra Kumar, Monterey, CA 50 4:50:23 50-54/150
1437. Paul Williams, Charlotte, NC 34 4:50:26 30-34/236
1438. John Oxrider, Charlotte, NC 32 4:50:38 30-34/237
1439. Richard Muth, St. Louis, MO 29 4:50:53 25-29/189
1440. Mark Ferris, Irving, TX 44 4:50:54 40-44/243
1441. Mike Zito, Jefferson City, MO 27 4:50:55 25-29/190
1442. Michael Ousley, Walnut Creek, CA 40 4:51:15 40-44/244
1443. Mark Blancarte, Alamo, CA 41 4:51:15 40-44/245
1444. Mark Williams, San Francisco, CA 22 4:51:20 20-24/59
1445. Tom Thrower, Alameda, CA 52 4:51:21 50-54/151
1446. Frank O'shaughnessy, Chamblee, GA 45 4:51:22 45-49/189
1447. Thomas Biggs, Vacaville, CA 41 4:51:42 40-44/246
1448. Elvis Chan, Rocklin, CA 30 4:51:44 30-34/238
1449. Thomas Knipp, New York, NY 37 4:51:48 35-39/258
1450. Alan Takumi, Vacaville, CA 48 4:51:49 45-49/190
1451. Michael Coffee, Silver Spring, MD 27 4:51:55 25-29/191
1452. Dan Smathers, Smyrna, GA 41 4:52:05 40-44/247
1453. Pierre D'avenas, Carmel, CA 46 4:52:06 45-49/191
1454. Dick Vojvoda, Danville, CA 38 4:52:13 35-39/259
1455. Phillip Nesbitt, Great Falls, VA 39 4:52:13 35-39/260
1456. Bill Ewing, Novi, MI 50 4:52:31 50-54/152
1457. Gary Caldwell, St. Peters, MO 54 4:52:33 50-54/153
1458. Tohru Ohtanic/O K.Watahiki, San Jos 48 4:52:41 45-49/192
1459. Ronald Friedman, Monterey, CA 45 4:52:44 45-49/193
1460. Peter Froman, Flushing, NY 56 4:52:49 55-59/62
1461. Dan Hedges, Houston, TX 52 4:52:53 50-54/154
1462. Robby Sabban, Webster, TX 42 4:52:55 40-44/248
1463. Jonathan Levine, Salinas, CA 37 4:52:56 35-39/261
1464. Mike English, Salinas, CA 52 4:53:00 50-54/155
1465. Richard Briscoe, Carmel Valley, CA 52 4:53:12 50-54/156
1466. Anthony Moore, Sunnyvale, CA 38 4:53:26 35-39/262
1467. Dan Londahl, Monterey, CA 54 4:53:30 50-54/157
1468. Cris Hamilton, Tiburon, CA 45 4:53:33 45-49/194
1469. Kurt Specht, Campbell, CA 26 4:53:45 25-29/192
1470. Steffan Welch, San Jose, CA 25 4:53:51 25-29/193
1471. Mike Ramage, San Jose, CA 38 4:53:52 35-39/263
1472. Carl Rountree, Granite Bay, CA 51 4:54:01 50-54/158
1473. Orin Scandrett, Minneapolis, M 68 4:54:08 65-69/10
1474. Ciro De Guzman, Burbank, CA 38 4:54:12 35-39/264
1475. Dave Magno, Toms River, NJ 42 4:54:19 40-44/249
1476. Tim Netzell, St Paul, MN 42 4:54:29 40-44/250
1477. Ian Moll, Oakland, CA 27 4:54:46 25-29/194
1478. John Butler, Fairfield, CA 39 4:55:03 35-39/265
1479. Patrick Johnson, Pleasant Hill, CA 43 4:55:04 40-44/251
1480. Martin Stein, Armonk, NY 36 4:55:17 35-39/266
1481. Scott Smith, Atlanta, GA 38 4:55:26 35-39/267
1482. Jake McGuire, Oakland, CA 42 4:55:32 40-44/252
1483. Ric Williams, Redlands, CA 41 4:55:46 40-44/253
1484. Doug Sarno, Costa Mesa, CA 26 4:55:52 25-29/195
1485. Edgar Walters, Knoxville, TN 39 4:56:17 35-39/268
1486. Doug Brown, Vista, CA 38 4:56:19 35-39/269
1487. Michael Fiasco, Port Hueneme, CA 34 4:56:26 30-34/239
1488. Nick Weber, San Miguel, CA 44 4:57:19 40-44/254
1489. John Jerkovich, Council Bluffs, IA 42 4:57:20 40-44/255
1490. John Veale, Claremont, ON 55 4:57:25 55-59/63
1491. Glenn Smith, Mission Viejo, CA 38 4:57:26 35-39/270
1492. Michael Merwin, Napa, CA 43 4:57:29 40-44/256
1493. Stephen O'leary, San Jose, CA 35 4:57:30 35-39/271
1494. David Durham, Monterey, CA 35 4:57:40 35-39/272
1495. Alex Estebat, Pleasanton, CA 45 4:57:47 45-49/195
1496. John Haupert, Scottsdale, AZ 26 4:57:54 25-29/196
1497. Richard Rentero, Shinle Springs, CA 53 4:57:56 50-54/159
1498. Thomas O'neal, Loma Linda, CA 54 4:58:06 50-54/160
1499. Glenn Millar, Carmichael, CA 59 4:58:16 55-59/64
1500. Ryan Growney, Santa Barbara, CA 23 4:58:29 20-24/60
1501. Heinz Jordans, Alsdorf, GE 63 4:58:39 60-64/34
1502. Larry Snowden, Villa Hills, KY 45 4:58:40 45-49/196
1503. Brian Morgan, Englishtown, NJ 54 4:58:41 50-54/161
1504. Ed Easton, Santa Barbara, CA 33 4:58:48 30-34/240
1505. Michael Nightingale, San Bruno, CA 32 4:58:49 30-34/241
1506. Gerardo Garcia, The Woodlands, TX 39 4:58:58 35-39/273
1507. Robert Dvorak, Half Moon Bay, CA 60 4:59:14 60-64/35
1508. David Provost, Manteca, CA 44 4:59:30 40-44/257
1509. William Lamb, Newwhiteland, IN 51 4:59:49 50-54/162
1510. Gregory Atchan, El Sobrante, CA 39 4:59:53 35-39/274
1511. Ron Adams, Sacramento, CA 51 4:59:53 50-54/163
1512. Tom Carpenter, W. Sacramento, CA 36 4:59:55 35-39/275
1513. Erik Davidson, Carmel, CA 37 5:00:01 35-39/276
1514. Kenneth Davidson, Monterey, CA 58 5:00:02 55-59/65
1515. Gary Werner, Corbett, OR 48 5:00:03 45-49/197
1516. Delbart Banks, Hayward, CA 47 5:00:03 45-49/198
1517. Richard Lloyd, Charleston, SC 54 5:00:04 50-54/164
1518. Gordon Fallone, Mill Valley, CA 34 5:00:09 30-34/242
1519. Doug Bailey, Woodinville, WA 43 5:00:32 40-44/258
1520. Robert Carr, San Francisco, CA 42 5:00:50 40-44/259
1521. Dennis Mueller, New Berlin, WI 42 5:00:51 40-44/260
1522. John Fisher, Calgary, AB 53 5:00:53 50-54/165
1523. Jon Uto, Mill Valley, CA 57 5:00:59 55-59/66
1524. Ken Anding, Fullerton, CA 39 5:01:17 35-39/277
1525. Mike Snarr, Idaho Falls, ID 34 5:01:26 30-34/243
1526. Lawrence Henry, Jefferson City, MO 58 5:01:33 55-59/67
1527. Steve Brown, Leesburg, VA 50 5:01:35 50-54/166
1528. Robert Snow, Monterey, CA 31 5:01:36 30-34/244
1529. Lou Wilson, Houston, TX 62 5:02:05 60-64/36
1530. Allen Worsley, Earlville, IL 50 5:02:26 50-54/167
1531. Ken Snyder, Morristown, NJ 44 5:02:41 40-44/261
1532. Brian Barnes, Monterey, CA 25 5:02:53 25-29/197
1533. Aaron Hemquist, Minneapolis, MN 25 5:03:08 25-29/198
1534. David Ott, Livermore, CA 28 5:03:33 25-29/199
1535. Martin Boswell, Berkeley, CA 35 5:03:42 35-39/278
1536. Kent Paro, Pacific Grove, CA 34 5:03:54 30-34/245
1537. David Lanter, Gilbert, AZ 40 5:03:56 40-44/262
1538. Ralph Riddell, Salinas, CA 60 5:03:59 60-64/37
1539. Brent Chipman, Salt Lake City, UT 46 5:04:00 45-49/199
1540. Jay Eriv, Old Bridge, NJ 38 5:04:17 35-39/279
1541. Samir Sharma, Springfield, NJ 28 5:04:55 25-29/200
1542. Jose Constenla, Miami, FL 32 5:04:56 30-34/246
1543. Tarcisio Nieto, Miami, 42 5:04:58 40-44/263
1544. Scott Forbes, Taos, NM 55 5:05:08 55-59/68
1545. Fredric Hermann, Palmdale, CA 60 5:05:09 60-64/38
1546. George H. Smith, Santa Cruz, CA 50 5:05:20 50-54/168
1547. Alvin Walters, Watsonville, CA 47 5:05:22 45-49/200
1548. Jim Clemmens, Baltimore, MD 40 5:05:28 40-44/264
1549. James Hales, Springfield, VA 48 5:05:32 45-49/201
1550. Balaji Tamarappoo, San Francisco, C 28 5:05:52 25-29/201
1551. Samuel Gainor, Atlanta, GA 50 5:05:55 50-54/169
1552. Jim Bremner, Washington, IL 50 5:06:07 50-54/170
1553. Salvatore Perillo, Washington, IL 45 5:06:09 45-49/202
1554. Michael Brown, Tucson, AZ 60 5:06:14 60-64/39
1555. Ronald Bonial, Boulder, CO 47 5:06:24 45-49/203
1556. Greg Knight, San Jose, CA 44 5:06:32 40-44/265
1557. Rick Schaefer, San Jose, CA 45 5:06:34 45-49/204
1558. David Brostrom, Waukesha, WI 46 5:06:35 45-49/205
1559. Lawrence Friedman, Houston, TX 62 5:06:45 60-64/40
1560. Joseph Linn, Issaquah, WA 45 5:06:46 45-49/206
1561. Rick Hummel, Lompoc, CA 43 5:06:54 40-44/266
1562. Joseph Clark, Jenkintown, PA 30 5:06:56 30-34/247
1563. Bill Thurman, Cherry Valley, CA 55 5:07:07 55-59/69
1564. Stephen Teele, Redlands, CA 57 5:07:07 55-59/70
1565. Kent Radek, Bellevue, NE 32 5:07:23 30-34/248
1566. Carl Gillingham, San Pedro, CA 53 5:08:03 50-54/171
1567. Martin Henderson, Seaside, CA 42 5:08:03 40-44/267
1568. Tom Maher, Narberth, PA 33 5:08:23 30-34/249
1569. Jeffrey Wold, Aurora, CO 41 5:08:31 40-44/268
1570. John Gollery, Anza, CA 41 5:08:32 40-44/269
1571. Don Lawson, Simi Valley, CA 51 5:08:44 50-54/172
1572. John Powers, Portland, ME 28 5:08:45 25-29/202
1573. David Mullally, Carmel Valley, CA 51 5:08:45 50-54/173
1574. Daniel Kessler, Lancaster, CA 41 5:08:48 40-44/270
1575. Andrew Obeso, Monterey, CA 52 5:08:58 50-54/174
1576. Arthur Dunn, Gig Harbor, WA 39 5:09:02 35-39/280
1577. David Brown, Peoria, IL 53 5:09:17 50-54/175
1578. Larry Rode, Faribault, MN 38 5:09:21 35-39/281
1579. Stephen Taylor, Northridge, CA 42 5:09:26 40-44/271
1580. Leonard Isip, Pasadena, CA 38 5:09:29 35-39/282
1581. Randall Fickel, Plano, TX 36 5:09:34 35-39/283
1582. J.Joseph Modder, Los Angeles, CA 34 5:09:35 30-34/250
1583. Steve Paski, San Jose, CA 51 5:09:38 50-54/176
1584. Bruce Fielding, Marietta, GA 56 5:09:53 55-59/71
1585. Ricardo Centeno, Fresno, CA 58 5:09:55 55-59/72
1586. Carl Martin, Lodi, CA 50 5:09:58 50-54/177
1587. Ken Frazier, Dublin, OH 55 5:10:01 55-59/73
1588. Reed Cobb, Plano, TX 54 5:10:05 50-54/178
1589. Chet Rogers, Ventura, CA 64 5:10:10 60-64/41
1590. Earl Brightbill, Roswell, GA 56 5:10:31 55-59/74
1591. Ken Tran, San Francisco, CA 45 5:10:58 45-49/207
1592. Patrick Aldape, Marina, CA 40 5:11:04 40-44/272
1593. Mario Enea, Monterey, CA 27 5:11:19 25-29/203
1594. John Soper, Big Sur, CA 65 5:12:16 65-69/11
1595. Gary York, Oakland, CA 35 5:12:32 35-39/284
1596. Michael Denton, Overland Park, KS 43 5:12:33 40-44/273
1597. John McCord, Salinas, CA 43 5:12:54 40-44/274
1598. Ron Huesman, Danville, CA 58 5:13:03 55-59/75
1599. Michael Fitzgerald, Woodland, CA 39 5:13:23 35-39/285
1600. Tim Burke, Concord, CA 42 5:13:24 40-44/275
1601. Gregory Jahnke, San Francisco, CA 44 5:13:36 40-44/276
1602. David Andersen, Oroville, CA 53 5:13:37 50-54/179
1603. Joseph Kelly, Bradley Beach, NJ 28 5:13:39 25-29/204
1604. Maurice Atkin, St. George, UT 36 5:13:49 35-39/286
1605. Craig Sullivan, St. George, UT 38 5:13:49 35-39/287
1606. Donald A. L. Matthias, Victorville, 63 5:13:49 60-64/42
1607. John Baker, Houston, TX 50 5:13:49 50-54/180
1608. Mark Morgan, Livermore, CA 44 5:13:49 40-44/277
1609. Sergio Soria, San Jose Ca., CA 44 5:14:29 40-44/278
1610. Kevin Palmer, New York, NY 33 5:14:38 30-34/251
1611. Chris Hillyer, Pasadena, CA 25 5:14:55 25-29/205
1612. Chuck Robinson, Melbourne Beach, FL 32 5:15:19 30-34/252
1613. Blake Haak, Lafayette, CA 28 5:15:44 25-29/206
1614. Mike Walkinshaw, Vancouver, BC 30 5:16:06 30-34/253
1615. Roger Bosley, Battle Ground, IN 58 5:16:14 55-59/76
1616. Joseph O'leary, Arlington Heights, 49 5:16:26 45-49/208
1617. Carlton Henson, Atlanta, GA 43 5:16:34 40-44/279
1618. Thomas Dreyer, Eugene, OR 52 5:16:58 50-54/181
1619. Victor Garcia, Fort Worth, TX 46 5:17:08 45-49/209
1620. Raymond Santangelo, Troy, MI 55 5:17:17 55-59/77
1621. Ernesto Patino, Placentia, CA 36 5:17:33 35-39/288
1622. Cornelis Guijt, East Grand Rapids, 46 5:17:36 45-49/210
1623. John Chappel, Reno, NV 67 5:17:37 65-69/12
1624. Morris Fisher, Evanston, IL 59 5:17:59 55-59/78
1625. Harmon Feig, Aptos, CA 52 5:18:10 50-54/182
1626. Eung Shin, North Hollywood, CA 54 5:18:12 50-54/183
1627. Ari Rosenblatt, Beverly Hills, CA 50 5:18:25 50-54/184
1628. Giovanni Gatti, Modena, IT 52 5:18:47 50-54/185
1629. Eric Stoneman, Libertyville, IL 31 5:18:52 30-34/254
1630. Richard Hoyer, Berkeley, CA 35 5:19:01 35-39/289
1631. Roger Adams, Altadena, CA 60 5:19:03 60-64/43
1632. Jerry Gillespie, Manhattan, KS 62 5:19:08 60-64/44
1633. Antonio Dominguez, Chulavista, CA 59 5:19:09 55-59/79
1634. Lazaro Urbina, Chulavista, CA 55 5:19:10 55-59/80
1635. Ken Weaver, Port Orchard, WA 47 5:19:18 45-49/211
1636. Michael R. Moore, Palos Verdes, CA 64 5:19:20 60-64/45
1637. Robert Harold, Ingelheim, 35 5:19:24 35-39/290
1638. Chat Vaewsorn, Menlo Park, CA 41 5:20:10 40-44/280
1639. Alan Young, Anaheim, CA 46 5:20:26 45-49/212
1640. Jack Friedlander, San Mateo, CA 77 5:20:30 75-79/1
1641. Michael Urso, Manhattan Beach, CA 56 5:20:47 55-59/81
1642. Robert Marshall, Hobe Sound, FL 53 5:20:48 50-54/186
1643. James Long, Garden Grove, CA 54 5:21:43 50-54/187
1644. Stanley Handel, Bellaire, TX 59 5:21:53 55-59/82
1645. Theodore Thomas, Santa Barbara, CA 26 5:22:27 25-29/207
1646. Jim Sellars, Rocklin, CA 43 5:22:45 40-44/281
1647. Deo Jaravata, Northridge, CA 34 5:22:54 30-34/255
1648. Jim Monahan, Carmel, CA 32 5:23:09 30-34/256
1649. Brad Magor, Soquel, CA 39 5:23:46 35-39/291
1650. Alan Steggles, Rvenna, OH 60 5:24:07 60-64/46
1651. Toshinori Watanabe, Hachioji Tokyo, 53 5:24:34 50-54/188
1652. Michael Saldana, Pasadena, CA 48 5:25:03 45-49/213
1653. Kim Rinehart, Pacific Grove, CA 51 5:25:11 50-54/189
1654. Patrick Richardson, San Diego, CA 53 5:25:19 50-54/190
1655. Howard Morrison, San Jose, CA 39 5:25:41 35-39/292
1656. James Palmer, Locust Valley, NY 31 5:25:45 30-34/257
1657. Richard Soares, Salinas, CA 55 5:25:54 55-59/83
1658. Norman Ernst, Fountain Hills, AZ 56 5:26:03 55-59/84
1659. J Topete, Salinas, CA 34 5:26:10 30-34/258
1660. Anthony Brooke, New York, NY 26 5:26:12 25-29/208
1661. Keith Hui, Fremont, CA 39 5:26:37 35-39/293
1662. John Ness, Greencastle, IN 43 5:26:48 40-44/282
1663. John Olds, Pebble Beach, CA 55 5:26:55 55-59/85
1664. David Blomgren, Corte Madera, CA 59 5:27:04 55-59/86
1665. Thomas Eppenberger, Concord, CA 44 5:27:26 40-44/283
1666. Rod McKay, Geneva, IL 49 5:27:29 45-49/214
1667. Mark Schutz, Portland, OR 35 5:27:47 35-39/294
1668. James Baumgard, Corona, CA 56 5:28:14 55-59/87
1669. Jeff Bowers, Redondo Beach, CA 33 5:29:09 30-34/259
1670. Ira Smith, Bell Gardens, CA 71 5:29:11 70-74/4


Copyright © 1998 Total Race Systems, Inc.
80 Mitchell Blvd, San Rafael, CA 94903 USA
1-800-998-7904
Contact us!